<?xml version="1.0" encoding="UTF-8" standalone="no" ?>
<gpx xmlns="http://www.topografix.com/GPX/1/1" xmlns:xsi="http://www.w3.org/2001/XMLSchema-instance" xsi:schemaLocation="http://www.topografix.com/GPX/1/1 http://www.topografix.com/GPX/1/1/gpx.xsd" version="1.1" creator="VisuGPX - https://www.visugpx.com">
  <metadata>
    <name>26 Km dignes les bains terre noire</name>
  </metadata>
  <trk>
    <name><![CDATA[26 Km dignes les bains terre noire.kml 26 Km dignes les bain...]]></name>
    <trkseg>
      <trkpt lat="44.09045" lon="6.27153">
        <ele>643.113</ele>
        <time>2021-05-11T19:53:16Z</time>
      </trkpt>
      <trkpt lat="44.09041" lon="6.2716">
        <ele>643.343</ele>
        <time>2021-05-11T19:53:56Z</time>
      </trkpt>
      <trkpt lat="44.0904" lon="6.27165">
        <ele>643.407</ele>
        <time>2021-05-11T19:54:36Z</time>
      </trkpt>
      <trkpt lat="44.08915" lon="6.27603">
        <ele>650.008</ele>
        <time>2021-05-11T19:55:16Z</time>
      </trkpt>
      <trkpt lat="44.08898" lon="6.27725">
        <ele>650.368</ele>
        <time>2021-05-11T19:55:56Z</time>
      </trkpt>
      <trkpt lat="44.08954" lon="6.27905">
        <ele>658.623</ele>
        <time>2021-05-11T19:56:36Z</time>
      </trkpt>
      <trkpt lat="44.08953" lon="6.28008">
        <ele>659.658</ele>
        <time>2021-05-11T19:57:16Z</time>
      </trkpt>
      <trkpt lat="44.08896" lon="6.28114">
        <ele>660.999</ele>
        <time>2021-05-11T19:57:56Z</time>
      </trkpt>
      <trkpt lat="44.08912" lon="6.28185">
        <ele>667.539</ele>
        <time>2021-05-11T19:58:36Z</time>
      </trkpt>
      <trkpt lat="44.08945" lon="6.28248">
        <ele>675.034</ele>
        <time>2021-05-11T19:59:16Z</time>
      </trkpt>
      <trkpt lat="44.08938" lon="6.28308">
        <ele>667.687</ele>
        <time>2021-05-11T19:59:56Z</time>
      </trkpt>
      <trkpt lat="44.08875" lon="6.28352">
        <ele>672.719</ele>
        <time>2021-05-11T20:00:36Z</time>
      </trkpt>
      <trkpt lat="44.08852" lon="6.28382">
        <ele>678.255</ele>
        <time>2021-05-11T20:01:16Z</time>
      </trkpt>
      <trkpt lat="44.08848" lon="6.28451">
        <ele>682.107</ele>
        <time>2021-05-11T20:01:56Z</time>
      </trkpt>
      <trkpt lat="44.0887" lon="6.28481">
        <ele>692.217</ele>
        <time>2021-05-11T20:02:36Z</time>
      </trkpt>
      <trkpt lat="44.0886" lon="6.28629">
        <ele>692.008</ele>
        <time>2021-05-11T20:03:16Z</time>
      </trkpt>
      <trkpt lat="44.08917" lon="6.28685">
        <ele>690.462</ele>
        <time>2021-05-11T20:03:56Z</time>
      </trkpt>
      <trkpt lat="44.08938" lon="6.28696">
        <ele>691.227</ele>
        <time>2021-05-11T20:04:36Z</time>
      </trkpt>
      <trkpt lat="44.08944" lon="6.28714">
        <ele>695.682</ele>
        <time>2021-05-11T20:05:16Z</time>
      </trkpt>
      <trkpt lat="44.08869" lon="6.28882">
        <ele>700.613</ele>
        <time>2021-05-11T20:05:56Z</time>
      </trkpt>
      <trkpt lat="44.08939" lon="6.29138">
        <ele>714.613</ele>
        <time>2021-05-11T20:06:36Z</time>
      </trkpt>
      <trkpt lat="44.08991" lon="6.2918">
        <ele>725.968</ele>
        <time>2021-05-11T20:07:16Z</time>
      </trkpt>
      <trkpt lat="44.08999" lon="6.29232">
        <ele>727.511</ele>
        <time>2021-05-11T20:07:56Z</time>
      </trkpt>
      <trkpt lat="44.09027" lon="6.29419">
        <ele>734.693</ele>
        <time>2021-05-11T20:08:36Z</time>
      </trkpt>
      <trkpt lat="44.09123" lon="6.29549">
        <ele>748.434</ele>
        <time>2021-05-11T20:09:16Z</time>
      </trkpt>
      <trkpt lat="44.09135" lon="6.29641">
        <ele>749.855</ele>
        <time>2021-05-11T20:09:56Z</time>
      </trkpt>
      <trkpt lat="44.09143" lon="6.29651">
        <ele>751.11</ele>
        <time>2021-05-11T20:10:36Z</time>
      </trkpt>
      <trkpt lat="44.09209" lon="6.29744">
        <ele>755.008</ele>
        <time>2021-05-11T20:11:16Z</time>
      </trkpt>
      <trkpt lat="44.09209" lon="6.29775">
        <ele>753.31</ele>
        <time>2021-05-11T20:11:56Z</time>
      </trkpt>
      <trkpt lat="44.09102" lon="6.2969">
        <ele>757.265</ele>
        <time>2021-05-11T20:12:36Z</time>
      </trkpt>
      <trkpt lat="44.09059" lon="6.29776">
        <ele>764.55</ele>
        <time>2021-05-11T20:13:16Z</time>
      </trkpt>
      <trkpt lat="44.09103" lon="6.29887">
        <ele>775.541</ele>
        <time>2021-05-11T20:13:56Z</time>
      </trkpt>
      <trkpt lat="44.09161" lon="6.29962">
        <ele>782.331</ele>
        <time>2021-05-11T20:14:36Z</time>
      </trkpt>
      <trkpt lat="44.09234" lon="6.30024">
        <ele>791.876</ele>
        <time>2021-05-11T20:15:16Z</time>
      </trkpt>
      <trkpt lat="44.09245" lon="6.30058">
        <ele>791.099</ele>
        <time>2021-05-11T20:15:56Z</time>
      </trkpt>
      <trkpt lat="44.09226" lon="6.30115">
        <ele>802.381</ele>
        <time>2021-05-11T20:16:36Z</time>
      </trkpt>
      <trkpt lat="44.09155" lon="6.30075">
        <ele>800.122</ele>
        <time>2021-05-11T20:17:16Z</time>
      </trkpt>
      <trkpt lat="44.09064" lon="6.30045">
        <ele>808.962</ele>
        <time>2021-05-11T20:17:56Z</time>
      </trkpt>
      <trkpt lat="44.09058" lon="6.3006">
        <ele>812.908</ele>
        <time>2021-05-11T20:18:36Z</time>
      </trkpt>
      <trkpt lat="44.09042" lon="6.30055">
        <ele>814.708</ele>
        <time>2021-05-11T20:19:16Z</time>
      </trkpt>
      <trkpt lat="44.09025" lon="6.30009">
        <ele>810.769</ele>
        <time>2021-05-11T20:19:56Z</time>
      </trkpt>
      <trkpt lat="44.09005" lon="6.30009">
        <ele>812.084</ele>
        <time>2021-05-11T20:20:36Z</time>
      </trkpt>
      <trkpt lat="44.0901" lon="6.30108">
        <ele>825.759</ele>
        <time>2021-05-11T20:21:16Z</time>
      </trkpt>
      <trkpt lat="44.08976" lon="6.30166">
        <ele>832.44</ele>
        <time>2021-05-11T20:21:56Z</time>
      </trkpt>
      <trkpt lat="44.08911" lon="6.30172">
        <ele>833.08</ele>
        <time>2021-05-11T20:22:36Z</time>
      </trkpt>
      <trkpt lat="44.08838" lon="6.30171">
        <ele>841.415</ele>
        <time>2021-05-11T20:23:16Z</time>
      </trkpt>
      <trkpt lat="44.08838" lon="6.30174">
        <ele>841.988</ele>
        <time>2021-05-11T20:23:56Z</time>
      </trkpt>
      <trkpt lat="44.0882" lon="6.30202">
        <ele>845.85</ele>
        <time>2021-05-11T20:24:36Z</time>
      </trkpt>
      <trkpt lat="44.08844" lon="6.30216">
        <ele>847.594</ele>
        <time>2021-05-11T20:25:16Z</time>
      </trkpt>
      <trkpt lat="44.08841" lon="6.30233">
        <ele>851.357</ele>
        <time>2021-05-11T20:25:56Z</time>
      </trkpt>
      <trkpt lat="44.08834" lon="6.30235">
        <ele>851.622</ele>
        <time>2021-05-11T20:26:36Z</time>
      </trkpt>
      <trkpt lat="44.08807" lon="6.30242">
        <ele>853.008</ele>
        <time>2021-05-11T20:27:16Z</time>
      </trkpt>
      <trkpt lat="44.08782" lon="6.30266">
        <ele>856.976</ele>
        <time>2021-05-11T20:27:56Z</time>
      </trkpt>
      <trkpt lat="44.08763" lon="6.30273">
        <ele>860.251</ele>
        <time>2021-05-11T20:28:36Z</time>
      </trkpt>
      <trkpt lat="44.08753" lon="6.30283">
        <ele>863.216</ele>
        <time>2021-05-11T20:29:16Z</time>
      </trkpt>
      <trkpt lat="44.0875" lon="6.30306">
        <ele>866.157</ele>
        <time>2021-05-11T20:29:56Z</time>
      </trkpt>
      <trkpt lat="44.08714" lon="6.30318">
        <ele>873.167</ele>
        <time>2021-05-11T20:30:36Z</time>
      </trkpt>
      <trkpt lat="44.08714" lon="6.3035">
        <ele>876.822</ele>
        <time>2021-05-11T20:31:16Z</time>
      </trkpt>
      <trkpt lat="44.08728" lon="6.30412">
        <ele>882.125</ele>
        <time>2021-05-11T20:31:56Z</time>
      </trkpt>
      <trkpt lat="44.087" lon="6.30405">
        <ele>884.497</ele>
        <time>2021-05-11T20:32:36Z</time>
      </trkpt>
      <trkpt lat="44.08694" lon="6.30419">
        <ele>886.318</ele>
        <time>2021-05-11T20:33:16Z</time>
      </trkpt>
      <trkpt lat="44.08712" lon="6.30461">
        <ele>890.998</ele>
        <time>2021-05-11T20:33:56Z</time>
      </trkpt>
      <trkpt lat="44.08692" lon="6.30473">
        <ele>894.317</ele>
        <time>2021-05-11T20:34:36Z</time>
      </trkpt>
      <trkpt lat="44.08686" lon="6.30496">
        <ele>898.608</ele>
        <time>2021-05-11T20:35:16Z</time>
      </trkpt>
      <trkpt lat="44.08689" lon="6.30499">
        <ele>898.978</ele>
        <time>2021-05-11T20:35:56Z</time>
      </trkpt>
      <trkpt lat="44.08716" lon="6.30539">
        <ele>903.773</ele>
        <time>2021-05-11T20:36:36Z</time>
      </trkpt>
      <trkpt lat="44.08721" lon="6.30546">
        <ele>904.678</ele>
        <time>2021-05-11T20:37:16Z</time>
      </trkpt>
      <trkpt lat="44.08722" lon="6.30548">
        <ele>904.979</ele>
        <time>2021-05-11T20:37:56Z</time>
      </trkpt>
      <trkpt lat="44.08752" lon="6.30599">
        <ele>912.419</ele>
        <time>2021-05-11T20:38:36Z</time>
      </trkpt>
      <trkpt lat="44.08783" lon="6.30595">
        <ele>914.774</ele>
        <time>2021-05-11T20:39:16Z</time>
      </trkpt>
      <trkpt lat="44.08828" lon="6.30559">
        <ele>918.737</ele>
        <time>2021-05-11T20:39:56Z</time>
      </trkpt>
      <trkpt lat="44.08829" lon="6.30559">
        <ele>918.879</ele>
        <time>2021-05-11T20:40:36Z</time>
      </trkpt>
      <trkpt lat="44.0887" lon="6.30565">
        <ele>921.157</ele>
        <time>2021-05-11T20:41:16Z</time>
      </trkpt>
      <trkpt lat="44.08954" lon="6.30579">
        <ele>926.7</ele>
        <time>2021-05-11T20:41:56Z</time>
      </trkpt>
      <trkpt lat="44.08949" lon="6.30594">
        <ele>929.82</ele>
        <time>2021-05-11T20:42:36Z</time>
      </trkpt>
      <trkpt lat="44.08947" lon="6.30595">
        <ele>930.008</ele>
        <time>2021-05-11T20:43:16Z</time>
      </trkpt>
      <trkpt lat="44.08916" lon="6.30611">
        <ele>931.052</ele>
        <time>2021-05-11T20:43:56Z</time>
      </trkpt>
      <trkpt lat="44.08894" lon="6.30662">
        <ele>934.437</ele>
        <time>2021-05-11T20:44:36Z</time>
      </trkpt>
      <trkpt lat="44.08894" lon="6.30664">
        <ele>934.742</ele>
        <time>2021-05-11T20:45:16Z</time>
      </trkpt>
      <trkpt lat="44.08907" lon="6.30744">
        <ele>942.363</ele>
        <time>2021-05-11T20:45:56Z</time>
      </trkpt>
      <trkpt lat="44.08898" lon="6.30793">
        <ele>944.833</ele>
        <time>2021-05-11T20:46:36Z</time>
      </trkpt>
      <trkpt lat="44.08896" lon="6.30853">
        <ele>949.138</ele>
        <time>2021-05-11T20:47:16Z</time>
      </trkpt>
      <trkpt lat="44.08866" lon="6.30868">
        <ele>949.851</ele>
        <time>2021-05-11T20:47:56Z</time>
      </trkpt>
      <trkpt lat="44.08834" lon="6.30946">
        <ele>959.273</ele>
        <time>2021-05-11T20:48:36Z</time>
      </trkpt>
      <trkpt lat="44.0881" lon="6.30953">
        <ele>960.864</ele>
        <time>2021-05-11T20:49:16Z</time>
      </trkpt>
      <trkpt lat="44.08791" lon="6.30927">
        <ele>959.606</ele>
        <time>2021-05-11T20:49:56Z</time>
      </trkpt>
      <trkpt lat="44.08773" lon="6.30946">
        <ele>962.816</ele>
        <time>2021-05-11T20:50:36Z</time>
      </trkpt>
      <trkpt lat="44.08774" lon="6.30983">
        <ele>965.908</ele>
        <time>2021-05-11T20:51:16Z</time>
      </trkpt>
      <trkpt lat="44.0876" lon="6.31021">
        <ele>968.723</ele>
        <time>2021-05-11T20:51:56Z</time>
      </trkpt>
      <trkpt lat="44.08754" lon="6.31131">
        <ele>975.588</ele>
        <time>2021-05-11T20:52:36Z</time>
      </trkpt>
      <trkpt lat="44.08738" lon="6.31174">
        <ele>978.923</ele>
        <time>2021-05-11T20:53:16Z</time>
      </trkpt>
      <trkpt lat="44.08708" lon="6.31195">
        <ele>979.074</ele>
        <time>2021-05-11T20:53:56Z</time>
      </trkpt>
      <trkpt lat="44.08706" lon="6.31218">
        <ele>981.754</ele>
        <time>2021-05-11T20:54:36Z</time>
      </trkpt>
      <trkpt lat="44.08708" lon="6.31217">
        <ele>981.859</ele>
        <time>2021-05-11T20:55:16Z</time>
      </trkpt>
      <trkpt lat="44.08799" lon="6.31163">
        <ele>982.942</ele>
        <time>2021-05-11T20:55:56Z</time>
      </trkpt>
      <trkpt lat="44.08802" lon="6.31166">
        <ele>983.664</ele>
        <time>2021-05-11T20:56:36Z</time>
      </trkpt>
      <trkpt lat="44.08931" lon="6.31224">
        <ele>995.153</ele>
        <time>2021-05-11T20:57:16Z</time>
      </trkpt>
      <trkpt lat="44.08931" lon="6.31229">
        <ele>995.604</ele>
        <time>2021-05-11T20:57:56Z</time>
      </trkpt>
      <trkpt lat="44.08932" lon="6.31235">
        <ele>996.214</ele>
        <time>2021-05-11T20:58:36Z</time>
      </trkpt>
      <trkpt lat="44.08941" lon="6.3129">
        <ele>999.908</ele>
        <time>2021-05-11T20:59:16Z</time>
      </trkpt>
      <trkpt lat="44.08931" lon="6.3132">
        <ele>1000.562</ele>
        <time>2021-05-11T20:59:56Z</time>
      </trkpt>
      <trkpt lat="44.08929" lon="6.31322">
        <ele>1000.697</ele>
        <time>2021-05-11T21:00:36Z</time>
      </trkpt>
      <trkpt lat="44.08927" lon="6.31325">
        <ele>1000.772</ele>
        <time>2021-05-11T21:01:16Z</time>
      </trkpt>
      <trkpt lat="44.08897" lon="6.31355">
        <ele>1004.753</ele>
        <time>2021-05-11T21:01:56Z</time>
      </trkpt>
      <trkpt lat="44.08864" lon="6.31341">
        <ele>1004.293</ele>
        <time>2021-05-11T21:02:36Z</time>
      </trkpt>
      <trkpt lat="44.0886" lon="6.3134">
        <ele>1004.358</ele>
        <time>2021-05-11T21:03:16Z</time>
      </trkpt>
      <trkpt lat="44.0885" lon="6.31353">
        <ele>1007.191</ele>
        <time>2021-05-11T21:03:56Z</time>
      </trkpt>
      <trkpt lat="44.08852" lon="6.31358">
        <ele>1007.723</ele>
        <time>2021-05-11T21:04:36Z</time>
      </trkpt>
      <trkpt lat="44.0891" lon="6.31417">
        <ele>1014.394</ele>
        <time>2021-05-11T21:05:16Z</time>
      </trkpt>
      <trkpt lat="44.08993" lon="6.31421">
        <ele>1014.057</ele>
        <time>2021-05-11T21:05:56Z</time>
      </trkpt>
      <trkpt lat="44.09036" lon="6.31435">
        <ele>1017.222</ele>
        <time>2021-05-11T21:06:36Z</time>
      </trkpt>
      <trkpt lat="44.09091" lon="6.31396">
        <ele>1022.008</ele>
        <time>2021-05-11T21:07:16Z</time>
      </trkpt>
      <trkpt lat="44.09115" lon="6.31403">
        <ele>1021.346</ele>
        <time>2021-05-11T21:07:56Z</time>
      </trkpt>
      <trkpt lat="44.0912" lon="6.31411">
        <ele>1021.461</ele>
        <time>2021-05-11T21:08:36Z</time>
      </trkpt>
      <trkpt lat="44.09144" lon="6.31453">
        <ele>1022.396</ele>
        <time>2021-05-11T21:09:16Z</time>
      </trkpt>
      <trkpt lat="44.09187" lon="6.31488">
        <ele>1023.797</ele>
        <time>2021-05-11T21:09:56Z</time>
      </trkpt>
      <trkpt lat="44.09217" lon="6.31494">
        <ele>1024.427</ele>
        <time>2021-05-11T21:10:36Z</time>
      </trkpt>
      <trkpt lat="44.09308" lon="6.31602">
        <ele>1025.012</ele>
        <time>2021-05-11T21:11:16Z</time>
      </trkpt>
      <trkpt lat="44.09324" lon="6.31598">
        <ele>1024.295</ele>
        <time>2021-05-11T21:11:56Z</time>
      </trkpt>
      <trkpt lat="44.0934" lon="6.3158">
        <ele>1019.867</ele>
        <time>2021-05-11T21:12:36Z</time>
      </trkpt>
      <trkpt lat="44.09368" lon="6.31591">
        <ele>1012.188</ele>
        <time>2021-05-11T21:13:16Z</time>
      </trkpt>
      <trkpt lat="44.09367" lon="6.31595">
        <ele>1013.324</ele>
        <time>2021-05-11T21:13:56Z</time>
      </trkpt>
      <trkpt lat="44.09362" lon="6.31678">
        <ele>1012.426</ele>
        <time>2021-05-11T21:14:36Z</time>
      </trkpt>
      <trkpt lat="44.09386" lon="6.31711">
        <ele>1009.008</ele>
        <time>2021-05-11T21:15:16Z</time>
      </trkpt>
      <trkpt lat="44.09395" lon="6.31712">
        <ele>1006.985</ele>
        <time>2021-05-11T21:15:56Z</time>
      </trkpt>
      <trkpt lat="44.09437" lon="6.31743">
        <ele>1002.18</ele>
        <time>2021-05-11T21:16:36Z</time>
      </trkpt>
      <trkpt lat="44.09433" lon="6.31747">
        <ele>1003.225</ele>
        <time>2021-05-11T21:17:16Z</time>
      </trkpt>
      <trkpt lat="44.09431" lon="6.31756">
        <ele>1003.926</ele>
        <time>2021-05-11T21:17:56Z</time>
      </trkpt>
      <trkpt lat="44.09421" lon="6.31906">
        <ele>1000.846</ele>
        <time>2021-05-11T21:18:36Z</time>
      </trkpt>
      <trkpt lat="44.09405" lon="6.31952">
        <ele>1005.211</ele>
        <time>2021-05-11T21:19:16Z</time>
      </trkpt>
      <trkpt lat="44.09457" lon="6.31993">
        <ele>990.774</ele>
        <time>2021-05-11T21:19:56Z</time>
      </trkpt>
      <trkpt lat="44.09487" lon="6.32046">
        <ele>988.966</ele>
        <time>2021-05-11T21:20:36Z</time>
      </trkpt>
      <trkpt lat="44.09592" lon="6.32065">
        <ele>989.242</ele>
        <time>2021-05-11T21:21:16Z</time>
      </trkpt>
      <trkpt lat="44.09642" lon="6.32031">
        <ele>992.122</ele>
        <time>2021-05-11T21:21:56Z</time>
      </trkpt>
      <trkpt lat="44.09637" lon="6.31957">
        <ele>988.214</ele>
        <time>2021-05-11T21:22:36Z</time>
      </trkpt>
      <trkpt lat="44.09693" lon="6.32013">
        <ele>995.908</ele>
        <time>2021-05-11T21:23:16Z</time>
      </trkpt>
      <trkpt lat="44.09792" lon="6.32009">
        <ele>997.471</ele>
        <time>2021-05-11T21:23:56Z</time>
      </trkpt>
      <trkpt lat="44.09821" lon="6.32092">
        <ele>1003.846</ele>
        <time>2021-05-11T21:24:36Z</time>
      </trkpt>
      <trkpt lat="44.09826" lon="6.32095">
        <ele>1003.611</ele>
        <time>2021-05-11T21:25:16Z</time>
      </trkpt>
      <trkpt lat="44.09884" lon="6.32135">
        <ele>1006.932</ele>
        <time>2021-05-11T21:25:56Z</time>
      </trkpt>
      <trkpt lat="44.09886" lon="6.32091">
        <ele>1006.522</ele>
        <time>2021-05-11T21:26:36Z</time>
      </trkpt>
      <trkpt lat="44.09888" lon="6.32085">
        <ele>1007.457</ele>
        <time>2021-05-11T21:27:16Z</time>
      </trkpt>
      <trkpt lat="44.09902" lon="6.32047">
        <ele>1013.14</ele>
        <time>2021-05-11T21:27:56Z</time>
      </trkpt>
      <trkpt lat="44.09898" lon="6.31986">
        <ele>1010.742</ele>
        <time>2021-05-11T21:28:36Z</time>
      </trkpt>
      <trkpt lat="44.09924" lon="6.31975">
        <ele>1017.732</ele>
        <time>2021-05-11T21:29:16Z</time>
      </trkpt>
      <trkpt lat="44.09932" lon="6.31929">
        <ele>1017.892</ele>
        <time>2021-05-11T21:29:56Z</time>
      </trkpt>
      <trkpt lat="44.09952" lon="6.31912">
        <ele>1021.211</ele>
        <time>2021-05-11T21:30:36Z</time>
      </trkpt>
      <trkpt lat="44.10009" lon="6.31857">
        <ele>1023.008</ele>
        <time>2021-05-11T21:31:16Z</time>
      </trkpt>
      <trkpt lat="44.1004" lon="6.31733">
        <ele>1015.98</ele>
        <time>2021-05-11T21:31:56Z</time>
      </trkpt>
      <trkpt lat="44.10065" lon="6.31698">
        <ele>1015.155</ele>
        <time>2021-05-11T21:32:36Z</time>
      </trkpt>
      <trkpt lat="44.10139" lon="6.31811">
        <ele>1021.23</ele>
        <time>2021-05-11T21:33:16Z</time>
      </trkpt>
      <trkpt lat="44.10182" lon="6.31836">
        <ele>1016.631</ele>
        <time>2021-05-11T21:33:56Z</time>
      </trkpt>
      <trkpt lat="44.10215" lon="6.31843">
        <ele>1019.521</ele>
        <time>2021-05-11T21:34:36Z</time>
      </trkpt>
      <trkpt lat="44.10214" lon="6.31772">
        <ele>1021.516</ele>
        <time>2021-05-11T21:35:16Z</time>
      </trkpt>
      <trkpt lat="44.10214" lon="6.31757">
        <ele>1023.169</ele>
        <time>2021-05-11T21:35:56Z</time>
      </trkpt>
      <trkpt lat="44.10226" lon="6.31738">
        <ele>1026.951</ele>
        <time>2021-05-11T21:36:36Z</time>
      </trkpt>
      <trkpt lat="44.10209" lon="6.31749">
        <ele>1021.922</ele>
        <time>2021-05-11T21:37:16Z</time>
      </trkpt>
      <trkpt lat="44.10206" lon="6.31744">
        <ele>1020.262</ele>
        <time>2021-05-11T21:37:56Z</time>
      </trkpt>
      <trkpt lat="44.10212" lon="6.31722">
        <ele>1021.508</ele>
        <time>2021-05-11T21:38:36Z</time>
      </trkpt>
      <trkpt lat="44.10242" lon="6.31668">
        <ele>1017.208</ele>
        <time>2021-05-11T21:39:16Z</time>
      </trkpt>
      <trkpt lat="44.10288" lon="6.31626">
        <ele>1010.329</ele>
        <time>2021-05-11T21:39:56Z</time>
      </trkpt>
      <trkpt lat="44.10305" lon="6.31621">
        <ele>1010.434</ele>
        <time>2021-05-11T21:40:36Z</time>
      </trkpt>
      <trkpt lat="44.10303" lon="6.316">
        <ele>1006.559</ele>
        <time>2021-05-11T21:41:16Z</time>
      </trkpt>
      <trkpt lat="44.10272" lon="6.31585">
        <ele>1003.49</ele>
        <time>2021-05-11T21:41:56Z</time>
      </trkpt>
      <trkpt lat="44.10231" lon="6.31549">
        <ele>1000.27</ele>
        <time>2021-05-11T21:42:36Z</time>
      </trkpt>
      <trkpt lat="44.10227" lon="6.31541">
        <ele>999.445</ele>
        <time>2021-05-11T21:43:16Z</time>
      </trkpt>
      <trkpt lat="44.10229" lon="6.3151">
        <ele>996.278</ele>
        <time>2021-05-11T21:43:56Z</time>
      </trkpt>
      <trkpt lat="44.10256" lon="6.31491">
        <ele>994.05</ele>
        <time>2021-05-11T21:44:36Z</time>
      </trkpt>
      <trkpt lat="44.1024" lon="6.31462">
        <ele>991.986</ele>
        <time>2021-05-11T21:45:16Z</time>
      </trkpt>
      <trkpt lat="44.10234" lon="6.31395">
        <ele>989.16</ele>
        <time>2021-05-11T21:45:56Z</time>
      </trkpt>
      <trkpt lat="44.10209" lon="6.31316">
        <ele>985.326</ele>
        <time>2021-05-11T21:46:36Z</time>
      </trkpt>
      <trkpt lat="44.10185" lon="6.31318">
        <ele>979.708</ele>
        <time>2021-05-11T21:47:16Z</time>
      </trkpt>
      <trkpt lat="44.10184" lon="6.31315">
        <ele>979.385</ele>
        <time>2021-05-11T21:47:56Z</time>
      </trkpt>
      <trkpt lat="44.10182" lon="6.3131">
        <ele>978.58</ele>
        <time>2021-05-11T21:48:36Z</time>
      </trkpt>
      <trkpt lat="44.10165" lon="6.31276">
        <ele>973.795</ele>
        <time>2021-05-11T21:49:16Z</time>
      </trkpt>
      <trkpt lat="44.10163" lon="6.31272">
        <ele>973.386</ele>
        <time>2021-05-11T21:49:56Z</time>
      </trkpt>
      <trkpt lat="44.10147" lon="6.31238">
        <ele>970.536</ele>
        <time>2021-05-11T21:50:36Z</time>
      </trkpt>
      <trkpt lat="44.10147" lon="6.31178">
        <ele>962.611</ele>
        <time>2021-05-11T21:51:16Z</time>
      </trkpt>
      <trkpt lat="44.10098" lon="6.31157">
        <ele>951.644</ele>
        <time>2021-05-11T21:51:56Z</time>
      </trkpt>
      <trkpt lat="44.10089" lon="6.31139">
        <ele>950.296</ele>
        <time>2021-05-11T21:52:36Z</time>
      </trkpt>
      <trkpt lat="44.10092" lon="6.31108">
        <ele>944.682</ele>
        <time>2021-05-11T21:53:16Z</time>
      </trkpt>
      <trkpt lat="44.10103" lon="6.3109">
        <ele>941.743</ele>
        <time>2021-05-11T21:53:56Z</time>
      </trkpt>
      <trkpt lat="44.10102" lon="6.31089">
        <ele>941.517</ele>
        <time>2021-05-11T21:54:36Z</time>
      </trkpt>
      <trkpt lat="44.10093" lon="6.31031">
        <ele>931.508</ele>
        <time>2021-05-11T21:55:16Z</time>
      </trkpt>
      <trkpt lat="44.10086" lon="6.31042">
        <ele>933.295</ele>
        <time>2021-05-11T21:55:56Z</time>
      </trkpt>
      <trkpt lat="44.10038" lon="6.30968">
        <ele>923.08</ele>
        <time>2021-05-11T21:56:36Z</time>
      </trkpt>
      <trkpt lat="44.10055" lon="6.30966">
        <ele>918.665</ele>
        <time>2021-05-11T21:57:16Z</time>
      </trkpt>
      <trkpt lat="44.10057" lon="6.30968">
        <ele>919.166</ele>
        <time>2021-05-11T21:57:56Z</time>
      </trkpt>
      <trkpt lat="44.10072" lon="6.30976">
        <ele>920.236</ele>
        <time>2021-05-11T21:58:36Z</time>
      </trkpt>
      <trkpt lat="44.10085" lon="6.30976">
        <ele>920.061</ele>
        <time>2021-05-11T21:59:16Z</time>
      </trkpt>
      <trkpt lat="44.10085" lon="6.30978">
        <ele>920.454</ele>
        <time>2021-05-11T21:59:56Z</time>
      </trkpt>
      <trkpt lat="44.10086" lon="6.3098">
        <ele>921.176</ele>
        <time>2021-05-11T22:00:36Z</time>
      </trkpt>
      <trkpt lat="44.10088" lon="6.30983">
        <ele>921.878</ele>
        <time>2021-05-11T22:01:16Z</time>
      </trkpt>
      <trkpt lat="44.10098" lon="6.30989">
        <ele>923.133</ele>
        <time>2021-05-11T22:01:56Z</time>
      </trkpt>
      <trkpt lat="44.10116" lon="6.30994">
        <ele>924.926</ele>
        <time>2021-05-11T22:02:36Z</time>
      </trkpt>
      <trkpt lat="44.10134" lon="6.30938">
        <ele>925.708</ele>
        <time>2021-05-11T22:03:16Z</time>
      </trkpt>
      <trkpt lat="44.1013" lon="6.30935">
        <ele>924.884</ele>
        <time>2021-05-11T22:03:56Z</time>
      </trkpt>
      <trkpt lat="44.10116" lon="6.30929">
        <ele>921.739</ele>
        <time>2021-05-11T22:04:36Z</time>
      </trkpt>
      <trkpt lat="44.10109" lon="6.30885">
        <ele>921.854</ele>
        <time>2021-05-11T22:05:16Z</time>
      </trkpt>
      <trkpt lat="44.1013" lon="6.30852">
        <ele>926.975</ele>
        <time>2021-05-11T22:05:56Z</time>
      </trkpt>
      <trkpt lat="44.10161" lon="6.30815">
        <ele>931.185</ele>
        <time>2021-05-11T22:06:36Z</time>
      </trkpt>
      <trkpt lat="44.10176" lon="6.30774">
        <ele>933.73</ele>
        <time>2021-05-11T22:07:16Z</time>
      </trkpt>
      <trkpt lat="44.10172" lon="6.30714">
        <ele>935.053</ele>
        <time>2021-05-11T22:07:56Z</time>
      </trkpt>
      <trkpt lat="44.10179" lon="6.3065">
        <ele>920.575</ele>
        <time>2021-05-11T22:08:36Z</time>
      </trkpt>
      <trkpt lat="44.10153" lon="6.30622">
        <ele>911.668</ele>
        <time>2021-05-11T22:09:16Z</time>
      </trkpt>
      <trkpt lat="44.10151" lon="6.30624">
        <ele>912.642</ele>
        <time>2021-05-11T22:09:56Z</time>
      </trkpt>
      <trkpt lat="44.1013" lon="6.30626">
        <ele>914.426</ele>
        <time>2021-05-11T22:10:36Z</time>
      </trkpt>
      <trkpt lat="44.10128" lon="6.30619">
        <ele>912.708</ele>
        <time>2021-05-11T22:11:16Z</time>
      </trkpt>
      <trkpt lat="44.10133" lon="6.30608">
        <ele>910.343</ele>
        <time>2021-05-11T22:11:56Z</time>
      </trkpt>
      <trkpt lat="44.1013" lon="6.30606">
        <ele>909.518</ele>
        <time>2021-05-11T22:12:36Z</time>
      </trkpt>
      <trkpt lat="44.1007" lon="6.30601">
        <ele>900.343</ele>
        <time>2021-05-11T22:13:16Z</time>
      </trkpt>
      <trkpt lat="44.10006" lon="6.30618">
        <ele>888.944</ele>
        <time>2021-05-11T22:13:56Z</time>
      </trkpt>
      <trkpt lat="44.09999" lon="6.30643">
        <ele>892.794</ele>
        <time>2021-05-11T22:14:36Z</time>
      </trkpt>
      <trkpt lat="44.09992" lon="6.30664">
        <ele>896.069</ele>
        <time>2021-05-11T22:15:16Z</time>
      </trkpt>
      <trkpt lat="44.0996" lon="6.30686">
        <ele>893.722</ele>
        <time>2021-05-11T22:15:56Z</time>
      </trkpt>
      <trkpt lat="44.0995" lon="6.30695">
        <ele>892.524</ele>
        <time>2021-05-11T22:16:36Z</time>
      </trkpt>
      <trkpt lat="44.09918" lon="6.30687">
        <ele>886.941</ele>
        <time>2021-05-11T22:17:16Z</time>
      </trkpt>
      <trkpt lat="44.09898" lon="6.30698">
        <ele>886.581</ele>
        <time>2021-05-11T22:17:56Z</time>
      </trkpt>
      <trkpt lat="44.09892" lon="6.30666">
        <ele>884.209</ele>
        <time>2021-05-11T22:18:36Z</time>
      </trkpt>
      <trkpt lat="44.09901" lon="6.30646">
        <ele>884.208</ele>
        <time>2021-05-11T22:19:16Z</time>
      </trkpt>
      <trkpt lat="44.09906" lon="6.30608">
        <ele>882.641</ele>
        <time>2021-05-11T22:19:56Z</time>
      </trkpt>
      <trkpt lat="44.09901" lon="6.30567">
        <ele>883.176</ele>
        <time>2021-05-11T22:20:36Z</time>
      </trkpt>
      <trkpt lat="44.09879" lon="6.30562">
        <ele>886.961</ele>
        <time>2021-05-11T22:21:16Z</time>
      </trkpt>
      <trkpt lat="44.09858" lon="6.30524">
        <ele>890.832</ele>
        <time>2021-05-11T22:21:56Z</time>
      </trkpt>
      <trkpt lat="44.09856" lon="6.30501">
        <ele>891.842</ele>
        <time>2021-05-11T22:22:36Z</time>
      </trkpt>
      <trkpt lat="44.09857" lon="6.30479">
        <ele>894.757</ele>
        <time>2021-05-11T22:23:16Z</time>
      </trkpt>
      <trkpt lat="44.09865" lon="6.30451">
        <ele>901.44</ele>
        <time>2021-05-11T22:23:56Z</time>
      </trkpt>
      <trkpt lat="44.09862" lon="6.30412">
        <ele>905.612</ele>
        <time>2021-05-11T22:24:36Z</time>
      </trkpt>
      <trkpt lat="44.09871" lon="6.30416">
        <ele>905.138</ele>
        <time>2021-05-11T22:25:16Z</time>
      </trkpt>
      <trkpt lat="44.09898" lon="6.30402">
        <ele>897.17</ele>
        <time>2021-05-11T22:25:56Z</time>
      </trkpt>
      <trkpt lat="44.09915" lon="6.30365">
        <ele>891.217</ele>
        <time>2021-05-11T22:26:36Z</time>
      </trkpt>
      <trkpt lat="44.09843" lon="6.30347">
        <ele>886.308</ele>
        <time>2021-05-11T22:27:16Z</time>
      </trkpt>
      <trkpt lat="44.09807" lon="6.30327">
        <ele>884.14</ele>
        <time>2021-05-11T22:27:56Z</time>
      </trkpt>
      <trkpt lat="44.09792" lon="6.30297">
        <ele>878.715</ele>
        <time>2021-05-11T22:28:36Z</time>
      </trkpt>
      <trkpt lat="44.09776" lon="6.30295">
        <ele>878.47</ele>
        <time>2021-05-11T22:29:16Z</time>
      </trkpt>
      <trkpt lat="44.09775" lon="6.3029">
        <ele>878.371</ele>
        <time>2021-05-11T22:29:56Z</time>
      </trkpt>
      <trkpt lat="44.09771" lon="6.30277">
        <ele>877.441</ele>
        <time>2021-05-11T22:30:36Z</time>
      </trkpt>
      <trkpt lat="44.09756" lon="6.30221">
        <ele>871.796</ele>
        <time>2021-05-11T22:31:16Z</time>
      </trkpt>
      <trkpt lat="44.09755" lon="6.30221">
        <ele>871.739</ele>
        <time>2021-05-11T22:31:56Z</time>
      </trkpt>
      <trkpt lat="44.09709" lon="6.30219">
        <ele>863.361</ele>
        <time>2021-05-11T22:32:36Z</time>
      </trkpt>
      <trkpt lat="44.09669" lon="6.30182">
        <ele>855.966</ele>
        <time>2021-05-11T22:33:16Z</time>
      </trkpt>
      <trkpt lat="44.09597" lon="6.30155">
        <ele>845.129</ele>
        <time>2021-05-11T22:33:56Z</time>
      </trkpt>
      <trkpt lat="44.09518" lon="6.30142">
        <ele>829.221</ele>
        <time>2021-05-11T22:34:36Z</time>
      </trkpt>
      <trkpt lat="44.09506" lon="6.30123">
        <ele>826.408</ele>
        <time>2021-05-11T22:35:16Z</time>
      </trkpt>
      <trkpt lat="44.09524" lon="6.30108">
        <ele>822.773</ele>
        <time>2021-05-11T22:35:56Z</time>
      </trkpt>
      <trkpt lat="44.09494" lon="6.3008">
        <ele>810.188</ele>
        <time>2021-05-11T22:36:36Z</time>
      </trkpt>
      <trkpt lat="44.09509" lon="6.30072">
        <ele>805.863</ele>
        <time>2021-05-11T22:37:16Z</time>
      </trkpt>
      <trkpt lat="44.09482" lon="6.30068">
        <ele>802.834</ele>
        <time>2021-05-11T22:37:56Z</time>
      </trkpt>
      <trkpt lat="44.09408" lon="6.3007">
        <ele>784.034</ele>
        <time>2021-05-11T22:38:36Z</time>
      </trkpt>
      <trkpt lat="44.0936" lon="6.30044">
        <ele>772.729</ele>
        <time>2021-05-11T22:39:16Z</time>
      </trkpt>
      <trkpt lat="44.09336" lon="6.30004">
        <ele>760.652</ele>
        <time>2021-05-11T22:39:56Z</time>
      </trkpt>
      <trkpt lat="44.09341" lon="6.30006">
        <ele>761.524</ele>
        <time>2021-05-11T22:40:36Z</time>
      </trkpt>
      <trkpt lat="44.09351" lon="6.30016">
        <ele>764.711</ele>
        <time>2021-05-11T22:41:16Z</time>
      </trkpt>
      <trkpt lat="44.09348" lon="6.29983">
        <ele>764.321</ele>
        <time>2021-05-11T22:41:56Z</time>
      </trkpt>
      <trkpt lat="44.09356" lon="6.29981">
        <ele>766.803</ele>
        <time>2021-05-11T22:42:36Z</time>
      </trkpt>
      <trkpt lat="44.09344" lon="6.29889">
        <ele>777.008</ele>
        <time>2021-05-11T22:43:16Z</time>
      </trkpt>
      <trkpt lat="44.09347" lon="6.29892">
        <ele>777.228</ele>
        <time>2021-05-11T22:43:56Z</time>
      </trkpt>
      <trkpt lat="44.09367" lon="6.2991">
        <ele>782.763</ele>
        <time>2021-05-11T22:44:36Z</time>
      </trkpt>
      <trkpt lat="44.09373" lon="6.29929">
        <ele>782.048</ele>
        <time>2021-05-11T22:45:16Z</time>
      </trkpt>
      <trkpt lat="44.09386" lon="6.29913">
        <ele>790.419</ele>
        <time>2021-05-11T22:45:56Z</time>
      </trkpt>
      <trkpt lat="44.09394" lon="6.29925">
        <ele>790.549</ele>
        <time>2021-05-11T22:46:36Z</time>
      </trkpt>
      <trkpt lat="44.09419" lon="6.29912">
        <ele>797.844</ele>
        <time>2021-05-11T22:47:16Z</time>
      </trkpt>
      <trkpt lat="44.09455" lon="6.29843">
        <ele>809.537</ele>
        <time>2021-05-11T22:47:56Z</time>
      </trkpt>
      <trkpt lat="44.09465" lon="6.29809">
        <ele>816.099</ele>
        <time>2021-05-11T22:48:36Z</time>
      </trkpt>
      <trkpt lat="44.09459" lon="6.29781">
        <ele>821.091</ele>
        <time>2021-05-11T22:49:16Z</time>
      </trkpt>
      <trkpt lat="44.09486" lon="6.29741">
        <ele>829.781</ele>
        <time>2021-05-11T22:49:56Z</time>
      </trkpt>
      <trkpt lat="44.09494" lon="6.29693">
        <ele>838.519</ele>
        <time>2021-05-11T22:50:36Z</time>
      </trkpt>
      <trkpt lat="44.095" lon="6.29688">
        <ele>839.908</ele>
        <time>2021-05-11T22:51:16Z</time>
      </trkpt>
      <trkpt lat="44.09506" lon="6.2962">
        <ele>848.256</ele>
        <time>2021-05-11T22:51:56Z</time>
      </trkpt>
      <trkpt lat="44.09519" lon="6.29584">
        <ele>853.631</ele>
        <time>2021-05-11T22:52:36Z</time>
      </trkpt>
      <trkpt lat="44.09544" lon="6.29564">
        <ele>856.836</ele>
        <time>2021-05-11T22:53:16Z</time>
      </trkpt>
      <trkpt lat="44.0959" lon="6.29513">
        <ele>864.077</ele>
        <time>2021-05-11T22:53:56Z</time>
      </trkpt>
      <trkpt lat="44.09613" lon="6.29487">
        <ele>870.097</ele>
        <time>2021-05-11T22:54:36Z</time>
      </trkpt>
      <trkpt lat="44.09636" lon="6.29485">
        <ele>872.872</ele>
        <time>2021-05-11T22:55:16Z</time>
      </trkpt>
      <trkpt lat="44.09643" lon="6.2948">
        <ele>873.435</ele>
        <time>2021-05-11T22:55:56Z</time>
      </trkpt>
      <trkpt lat="44.09704" lon="6.29436">
        <ele>884.217</ele>
        <time>2021-05-11T22:56:36Z</time>
      </trkpt>
      <trkpt lat="44.09708" lon="6.29439">
        <ele>884.636</ele>
        <time>2021-05-11T22:57:16Z</time>
      </trkpt>
      <trkpt lat="44.09715" lon="6.29442">
        <ele>885.717</ele>
        <time>2021-05-11T22:57:56Z</time>
      </trkpt>
      <trkpt lat="44.09725" lon="6.29451">
        <ele>886.818</ele>
        <time>2021-05-11T22:58:36Z</time>
      </trkpt>
      <trkpt lat="44.09746" lon="6.29476">
        <ele>885.008</ele>
        <time>2021-05-11T22:59:16Z</time>
      </trkpt>
      <trkpt lat="44.09904" lon="6.29428">
        <ele>894.58</ele>
        <time>2021-05-11T22:59:56Z</time>
      </trkpt>
      <trkpt lat="44.09905" lon="6.29444">
        <ele>895.325</ele>
        <time>2021-05-11T23:00:36Z</time>
      </trkpt>
      <trkpt lat="44.09904" lon="6.29447">
        <ele>895.42</ele>
        <time>2021-05-11T23:01:16Z</time>
      </trkpt>
      <trkpt lat="44.09904" lon="6.29455">
        <ele>895.831</ele>
        <time>2021-05-11T23:01:56Z</time>
      </trkpt>
      <trkpt lat="44.09902" lon="6.29463">
        <ele>895.911</ele>
        <time>2021-05-11T23:02:36Z</time>
      </trkpt>
      <trkpt lat="44.09902" lon="6.29466">
        <ele>896.126</ele>
        <time>2021-05-11T23:03:16Z</time>
      </trkpt>
      <trkpt lat="44.09902" lon="6.2947">
        <ele>896.449</ele>
        <time>2021-05-11T23:03:56Z</time>
      </trkpt>
      <trkpt lat="44.099" lon="6.29475">
        <ele>896.471</ele>
        <time>2021-05-11T23:04:36Z</time>
      </trkpt>
      <trkpt lat="44.09899" lon="6.29481">
        <ele>897.116</ele>
        <time>2021-05-11T23:05:16Z</time>
      </trkpt>
      <trkpt lat="44.09898" lon="6.29491">
        <ele>898.376</ele>
        <time>2021-05-11T23:05:56Z</time>
      </trkpt>
      <trkpt lat="44.09897" lon="6.29497">
        <ele>898.913</ele>
        <time>2021-05-11T23:06:36Z</time>
      </trkpt>
      <trkpt lat="44.09896" lon="6.29502">
        <ele>899.308</ele>
        <time>2021-05-11T23:07:16Z</time>
      </trkpt>
      <trkpt lat="44.09895" lon="6.29509">
        <ele>899.588</ele>
        <time>2021-05-11T23:07:56Z</time>
      </trkpt>
      <trkpt lat="44.09894" lon="6.2951">
        <ele>899.413</ele>
        <time>2021-05-11T23:08:36Z</time>
      </trkpt>
      <trkpt lat="44.09892" lon="6.29517">
        <ele>899.578</ele>
        <time>2021-05-11T23:09:16Z</time>
      </trkpt>
      <trkpt lat="44.09889" lon="6.29524">
        <ele>899.769</ele>
        <time>2021-05-11T23:09:56Z</time>
      </trkpt>
      <trkpt lat="44.09889" lon="6.29525">
        <ele>899.659</ele>
        <time>2021-05-11T23:10:36Z</time>
      </trkpt>
      <trkpt lat="44.09887" lon="6.29532">
        <ele>899.684</ele>
        <time>2021-05-11T23:11:16Z</time>
      </trkpt>
      <trkpt lat="44.09886" lon="6.29539">
        <ele>899.357</ele>
        <time>2021-05-11T23:11:56Z</time>
      </trkpt>
      <trkpt lat="44.09886" lon="6.29542">
        <ele>899.399</ele>
        <time>2021-05-11T23:12:36Z</time>
      </trkpt>
      <trkpt lat="44.09885" lon="6.29549">
        <ele>899.056</ele>
        <time>2021-05-11T23:13:16Z</time>
      </trkpt>
      <trkpt lat="44.09884" lon="6.29555">
        <ele>898.859</ele>
        <time>2021-05-11T23:13:56Z</time>
      </trkpt>
      <trkpt lat="44.09883" lon="6.29557">
        <ele>898.414</ele>
        <time>2021-05-11T23:14:36Z</time>
      </trkpt>
      <trkpt lat="44.09882" lon="6.29567">
        <ele>897.308</ele>
        <time>2021-05-11T23:15:16Z</time>
      </trkpt>
      <trkpt lat="44.09881" lon="6.29573">
        <ele>896.642</ele>
        <time>2021-05-11T23:15:56Z</time>
      </trkpt>
      <trkpt lat="44.09882" lon="6.2958">
        <ele>896.717</ele>
        <time>2021-05-11T23:16:36Z</time>
      </trkpt>
      <trkpt lat="44.09883" lon="6.29588">
        <ele>896.412</ele>
        <time>2021-05-11T23:17:16Z</time>
      </trkpt>
      <trkpt lat="44.09885" lon="6.29592">
        <ele>897.253</ele>
        <time>2021-05-11T23:17:56Z</time>
      </trkpt>
      <trkpt lat="44.09887" lon="6.29597">
        <ele>897.863</ele>
        <time>2021-05-11T23:18:36Z</time>
      </trkpt>
      <trkpt lat="44.09891" lon="6.29604">
        <ele>898.818</ele>
        <time>2021-05-11T23:19:16Z</time>
      </trkpt>
      <trkpt lat="44.09894" lon="6.29608">
        <ele>899.151</ele>
        <time>2021-05-11T23:19:56Z</time>
      </trkpt>
      <trkpt lat="44.09896" lon="6.29613">
        <ele>899.653</ele>
        <time>2021-05-11T23:20:36Z</time>
      </trkpt>
      <trkpt lat="44.09898" lon="6.29616">
        <ele>900.055</ele>
        <time>2021-05-11T23:21:16Z</time>
      </trkpt>
      <trkpt lat="44.09901" lon="6.29619">
        <ele>900.507</ele>
        <time>2021-05-11T23:21:56Z</time>
      </trkpt>
      <trkpt lat="44.09904" lon="6.29624">
        <ele>901.117</ele>
        <time>2021-05-11T23:22:36Z</time>
      </trkpt>
      <trkpt lat="44.09907" lon="6.29628">
        <ele>901.508</ele>
        <time>2021-05-11T23:23:16Z</time>
      </trkpt>
      <trkpt lat="44.09909" lon="6.29632">
        <ele>901.832</ele>
        <time>2021-05-11T23:23:56Z</time>
      </trkpt>
      <trkpt lat="44.09911" lon="6.29636">
        <ele>902.157</ele>
        <time>2021-05-11T23:24:36Z</time>
      </trkpt>
      <trkpt lat="44.09914" lon="6.29641">
        <ele>902.562</ele>
        <time>2021-05-11T23:25:16Z</time>
      </trkpt>
      <trkpt lat="44.09917" lon="6.29646">
        <ele>903.063</ele>
        <time>2021-05-11T23:25:56Z</time>
      </trkpt>
      <trkpt lat="44.09919" lon="6.2965">
        <ele>903.213</ele>
        <time>2021-05-11T23:26:36Z</time>
      </trkpt>
      <trkpt lat="44.09922" lon="6.29656">
        <ele>903.388</ele>
        <time>2021-05-11T23:27:16Z</time>
      </trkpt>
      <trkpt lat="44.09924" lon="6.29659">
        <ele>903.421</ele>
        <time>2021-05-11T23:27:56Z</time>
      </trkpt>
      <trkpt lat="44.09926" lon="6.29662">
        <ele>903.433</ele>
        <time>2021-05-11T23:28:36Z</time>
      </trkpt>
      <trkpt lat="44.09927" lon="6.29665">
        <ele>903.468</ele>
        <time>2021-05-11T23:29:16Z</time>
      </trkpt>
      <trkpt lat="44.0993" lon="6.29669">
        <ele>903.342</ele>
        <time>2021-05-11T23:29:56Z</time>
      </trkpt>
      <trkpt lat="44.09933" lon="6.29673">
        <ele>903.126</ele>
        <time>2021-05-11T23:30:36Z</time>
      </trkpt>
      <trkpt lat="44.09937" lon="6.29679">
        <ele>902.808</ele>
        <time>2021-05-11T23:31:16Z</time>
      </trkpt>
      <trkpt lat="44.09943" lon="6.29689">
        <ele>902.313</ele>
        <time>2021-05-11T23:31:56Z</time>
      </trkpt>
      <trkpt lat="44.09947" lon="6.29695">
        <ele>902.198</ele>
        <time>2021-05-11T23:32:36Z</time>
      </trkpt>
      <trkpt lat="44.09949" lon="6.29698">
        <ele>901.813</ele>
        <time>2021-05-11T23:33:16Z</time>
      </trkpt>
      <trkpt lat="44.09951" lon="6.29699">
        <ele>901.734</ele>
        <time>2021-05-11T23:33:56Z</time>
      </trkpt>
      <trkpt lat="44.09956" lon="6.297">
        <ele>901.894</ele>
        <time>2021-05-11T23:34:36Z</time>
      </trkpt>
      <trkpt lat="44.09959" lon="6.29701">
        <ele>901.819</ele>
        <time>2021-05-11T23:35:16Z</time>
      </trkpt>
      <trkpt lat="44.09962" lon="6.29701">
        <ele>901.962</ele>
        <time>2021-05-11T23:35:56Z</time>
      </trkpt>
      <trkpt lat="44.09966" lon="6.29701">
        <ele>902.124</ele>
        <time>2021-05-11T23:36:36Z</time>
      </trkpt>
      <trkpt lat="44.09967" lon="6.297">
        <ele>902.249</ele>
        <time>2021-05-11T23:37:16Z</time>
      </trkpt>
      <trkpt lat="44.09972" lon="6.297">
        <ele>902.402</ele>
        <time>2021-05-11T23:37:56Z</time>
      </trkpt>
      <trkpt lat="44.09976" lon="6.29701">
        <ele>901.822</ele>
        <time>2021-05-11T23:38:36Z</time>
      </trkpt>
      <trkpt lat="44.09979" lon="6.29701">
        <ele>901.308</ele>
        <time>2021-05-11T23:39:16Z</time>
      </trkpt>
      <trkpt lat="44.09985" lon="6.29702">
        <ele>900.361</ele>
        <time>2021-05-11T23:39:56Z</time>
      </trkpt>
      <trkpt lat="44.0999" lon="6.29701">
        <ele>899.576</ele>
        <time>2021-05-11T23:40:36Z</time>
      </trkpt>
      <trkpt lat="44.09991" lon="6.29701">
        <ele>899.371</ele>
        <time>2021-05-11T23:41:16Z</time>
      </trkpt>
      <trkpt lat="44.09996" lon="6.29703">
        <ele>898.352</ele>
        <time>2021-05-11T23:41:56Z</time>
      </trkpt>
      <trkpt lat="44.1" lon="6.29704">
        <ele>897.692</ele>
        <time>2021-05-11T23:42:36Z</time>
      </trkpt>
      <trkpt lat="44.10003" lon="6.29704">
        <ele>898.067</ele>
        <time>2021-05-11T23:43:16Z</time>
      </trkpt>
      <trkpt lat="44.10008" lon="6.29704">
        <ele>898.69</ele>
        <time>2021-05-11T23:43:56Z</time>
      </trkpt>
      <trkpt lat="44.10011" lon="6.29702">
        <ele>899.452</ele>
        <time>2021-05-11T23:44:36Z</time>
      </trkpt>
      <trkpt lat="44.10017" lon="6.29701">
        <ele>900.336</ele>
        <time>2021-05-11T23:45:16Z</time>
      </trkpt>
      <trkpt lat="44.10021" lon="6.29701">
        <ele>900.817</ele>
        <time>2021-05-11T23:45:56Z</time>
      </trkpt>
      <trkpt lat="44.10025" lon="6.297">
        <ele>901.518</ele>
        <time>2021-05-11T23:46:36Z</time>
      </trkpt>
      <trkpt lat="44.1003" lon="6.297">
        <ele>901.608</ele>
        <time>2021-05-11T23:47:16Z</time>
      </trkpt>
      <trkpt lat="44.10032" lon="6.29699">
        <ele>901.44</ele>
        <time>2021-05-11T23:47:56Z</time>
      </trkpt>
      <trkpt lat="44.10039" lon="6.29698">
        <ele>900.475</ele>
        <time>2021-05-11T23:48:36Z</time>
      </trkpt>
      <trkpt lat="44.10044" lon="6.29698">
        <ele>899.89</ele>
        <time>2021-05-11T23:49:16Z</time>
      </trkpt>
      <trkpt lat="44.10049" lon="6.29696">
        <ele>899.711</ele>
        <time>2021-05-11T23:49:56Z</time>
      </trkpt>
      <trkpt lat="44.10051" lon="6.29695">
        <ele>899.431</ele>
        <time>2021-05-11T23:50:36Z</time>
      </trkpt>
      <trkpt lat="44.10055" lon="6.29693">
        <ele>899.476</ele>
        <time>2021-05-11T23:51:16Z</time>
      </trkpt>
      <trkpt lat="44.10059" lon="6.29692">
        <ele>899.079</ele>
        <time>2021-05-11T23:51:56Z</time>
      </trkpt>
      <trkpt lat="44.10062" lon="6.29691">
        <ele>898.841</ele>
        <time>2021-05-11T23:52:36Z</time>
      </trkpt>
      <trkpt lat="44.10069" lon="6.29687">
        <ele>898.371</ele>
        <time>2021-05-11T23:53:16Z</time>
      </trkpt>
      <trkpt lat="44.10073" lon="6.29686">
        <ele>897.941</ele>
        <time>2021-05-11T23:53:56Z</time>
      </trkpt>
      <trkpt lat="44.10076" lon="6.29687">
        <ele>897.315</ele>
        <time>2021-05-11T23:54:36Z</time>
      </trkpt>
      <trkpt lat="44.10079" lon="6.29688">
        <ele>896.608</ele>
        <time>2021-05-11T23:55:16Z</time>
      </trkpt>
      <trkpt lat="44.10085" lon="6.2969">
        <ele>896.234</ele>
        <time>2021-05-11T23:55:56Z</time>
      </trkpt>
      <trkpt lat="44.10088" lon="6.29694">
        <ele>897.249</ele>
        <time>2021-05-11T23:56:36Z</time>
      </trkpt>
      <trkpt lat="44.10091" lon="6.29698">
        <ele>898.054</ele>
        <time>2021-05-11T23:57:16Z</time>
      </trkpt>
      <trkpt lat="44.10093" lon="6.29702">
        <ele>898.515</ele>
        <time>2021-05-11T23:57:56Z</time>
      </trkpt>
      <trkpt lat="44.10096" lon="6.2971">
        <ele>899.245</ele>
        <time>2021-05-11T23:58:36Z</time>
      </trkpt>
      <trkpt lat="44.10096" lon="6.29711">
        <ele>899.04</ele>
        <time>2021-05-11T23:59:16Z</time>
      </trkpt>
      <trkpt lat="44.10097" lon="6.29716">
        <ele>898.713</ele>
        <time>2021-05-11T23:59:56Z</time>
      </trkpt>
      <trkpt lat="44.10097" lon="6.29721">
        <ele>898.315</ele>
        <time>2021-05-12T00:00:36Z</time>
      </trkpt>
      <trkpt lat="44.10098" lon="6.29727">
        <ele>898.311</ele>
        <time>2021-05-12T00:01:16Z</time>
      </trkpt>
      <trkpt lat="44.101" lon="6.29737">
        <ele>898.321</ele>
        <time>2021-05-12T00:01:56Z</time>
      </trkpt>
      <trkpt lat="44.10101" lon="6.29746">
        <ele>897.803</ele>
        <time>2021-05-12T00:02:36Z</time>
      </trkpt>
      <trkpt lat="44.10102" lon="6.29751">
        <ele>897.408</ele>
        <time>2021-05-12T00:03:16Z</time>
      </trkpt>
      <trkpt lat="44.10103" lon="6.29759">
        <ele>897.098</ele>
        <time>2021-05-12T00:03:56Z</time>
      </trkpt>
      <trkpt lat="44.10107" lon="6.29764">
        <ele>897.473</ele>
        <time>2021-05-12T00:04:36Z</time>
      </trkpt>
      <trkpt lat="44.10109" lon="6.29768">
        <ele>897.718</ele>
        <time>2021-05-12T00:05:16Z</time>
      </trkpt>
      <trkpt lat="44.10111" lon="6.29773">
        <ele>897.679</ele>
        <time>2021-05-12T00:05:56Z</time>
      </trkpt>
      <trkpt lat="44.10113" lon="6.29777">
        <ele>898.219</ele>
        <time>2021-05-12T00:06:36Z</time>
      </trkpt>
      <trkpt lat="44.10116" lon="6.2978">
        <ele>898.934</ele>
        <time>2021-05-12T00:07:16Z</time>
      </trkpt>
      <trkpt lat="44.10119" lon="6.29783">
        <ele>899.637</ele>
        <time>2021-05-12T00:07:56Z</time>
      </trkpt>
      <trkpt lat="44.10123" lon="6.29784">
        <ele>901.319</ele>
        <time>2021-05-12T00:08:36Z</time>
      </trkpt>
      <trkpt lat="44.10126" lon="6.29787">
        <ele>902.416</ele>
        <time>2021-05-12T00:09:16Z</time>
      </trkpt>
      <trkpt lat="44.10128" lon="6.29788">
        <ele>902.976</ele>
        <time>2021-05-12T00:09:56Z</time>
      </trkpt>
      <trkpt lat="44.10133" lon="6.29789">
        <ele>905.213</ele>
        <time>2021-05-12T00:10:36Z</time>
      </trkpt>
      <trkpt lat="44.10138" lon="6.2979">
        <ele>907.108</ele>
        <time>2021-05-12T00:11:16Z</time>
      </trkpt>
      <trkpt lat="44.10142" lon="6.29792">
        <ele>907.738</ele>
        <time>2021-05-12T00:11:56Z</time>
      </trkpt>
      <trkpt lat="44.10143" lon="6.29793">
        <ele>907.913</ele>
        <time>2021-05-12T00:12:36Z</time>
      </trkpt>
      <trkpt lat="44.10147" lon="6.29794">
        <ele>908.538</ele>
        <time>2021-05-12T00:13:16Z</time>
      </trkpt>
      <trkpt lat="44.10151" lon="6.29796">
        <ele>909.159</ele>
        <time>2021-05-12T00:13:56Z</time>
      </trkpt>
      <trkpt lat="44.10153" lon="6.29798">
        <ele>909.589</ele>
        <time>2021-05-12T00:14:36Z</time>
      </trkpt>
      <trkpt lat="44.10159" lon="6.298">
        <ele>910.414</ele>
        <time>2021-05-12T00:15:16Z</time>
      </trkpt>
      <trkpt lat="44.10161" lon="6.29802">
        <ele>910.427</ele>
        <time>2021-05-12T00:15:56Z</time>
      </trkpt>
      <trkpt lat="44.10164" lon="6.29805">
        <ele>910.439</ele>
        <time>2021-05-12T00:16:36Z</time>
      </trkpt>
      <trkpt lat="44.10167" lon="6.29807">
        <ele>910.536</ele>
        <time>2021-05-12T00:17:16Z</time>
      </trkpt>
      <trkpt lat="44.10172" lon="6.2981">
        <ele>910.217</ele>
        <time>2021-05-12T00:17:56Z</time>
      </trkpt>
      <trkpt lat="44.10176" lon="6.29813">
        <ele>909.618</ele>
        <time>2021-05-12T00:18:36Z</time>
      </trkpt>
      <trkpt lat="44.10179" lon="6.29816">
        <ele>909.008</ele>
        <time>2021-05-12T00:19:16Z</time>
      </trkpt>
      <trkpt lat="44.1018" lon="6.29817">
        <ele>909.05</ele>
        <time>2021-05-12T00:19:56Z</time>
      </trkpt>
      <trkpt lat="44.10186" lon="6.29819">
        <ele>909.015</ele>
        <time>2021-05-12T00:20:36Z</time>
      </trkpt>
      <trkpt lat="44.10189" lon="6.29822">
        <ele>908.65</ele>
        <time>2021-05-12T00:21:16Z</time>
      </trkpt>
      <trkpt lat="44.10193" lon="6.29825">
        <ele>908.421</ele>
        <time>2021-05-12T00:21:56Z</time>
      </trkpt>
      <trkpt lat="44.10198" lon="6.29828">
        <ele>909.941</ele>
        <time>2021-05-12T00:22:36Z</time>
      </trkpt>
      <trkpt lat="44.10201" lon="6.2983">
        <ele>910.946</ele>
        <time>2021-05-12T00:23:16Z</time>
      </trkpt>
      <trkpt lat="44.10205" lon="6.29834">
        <ele>912.439</ele>
        <time>2021-05-12T00:23:56Z</time>
      </trkpt>
      <trkpt lat="44.10207" lon="6.29836">
        <ele>913.781</ele>
        <time>2021-05-12T00:24:36Z</time>
      </trkpt>
      <trkpt lat="44.1021" lon="6.2984">
        <ele>914.413</ele>
        <time>2021-05-12T00:25:16Z</time>
      </trkpt>
      <trkpt lat="44.10214" lon="6.29846">
        <ele>915.843</ele>
        <time>2021-05-12T00:25:56Z</time>
      </trkpt>
      <trkpt lat="44.10216" lon="6.2985">
        <ele>916.207</ele>
        <time>2021-05-12T00:26:36Z</time>
      </trkpt>
      <trkpt lat="44.10219" lon="6.29856">
        <ele>916.908</ele>
        <time>2021-05-12T00:27:16Z</time>
      </trkpt>
      <trkpt lat="44.1022" lon="6.29858">
        <ele>917.118</ele>
        <time>2021-05-12T00:27:56Z</time>
      </trkpt>
      <trkpt lat="44.10223" lon="6.29864">
        <ele>917.873</ele>
        <time>2021-05-12T00:28:36Z</time>
      </trkpt>
      <trkpt lat="44.10226" lon="6.29868">
        <ele>918.158</ele>
        <time>2021-05-12T00:29:16Z</time>
      </trkpt>
      <trkpt lat="44.10228" lon="6.29871">
        <ele>918.389</ele>
        <time>2021-05-12T00:29:56Z</time>
      </trkpt>
      <trkpt lat="44.1023" lon="6.29875">
        <ele>918.349</ele>
        <time>2021-05-12T00:30:36Z</time>
      </trkpt>
      <trkpt lat="44.10233" lon="6.29881">
        <ele>918.374</ele>
        <time>2021-05-12T00:31:16Z</time>
      </trkpt>
      <trkpt lat="44.10235" lon="6.29884">
        <ele>918.287</ele>
        <time>2021-05-12T00:31:56Z</time>
      </trkpt>
      <trkpt lat="44.10238" lon="6.29889">
        <ele>918.139</ele>
        <time>2021-05-12T00:32:36Z</time>
      </trkpt>
      <trkpt lat="44.1024" lon="6.29893">
        <ele>918.022</ele>
        <time>2021-05-12T00:33:16Z</time>
      </trkpt>
      <trkpt lat="44.10242" lon="6.29896">
        <ele>917.962</ele>
        <time>2021-05-12T00:33:56Z</time>
      </trkpt>
      <trkpt lat="44.10245" lon="6.29899">
        <ele>917.808</ele>
        <time>2021-05-12T00:34:36Z</time>
      </trkpt>
      <trkpt lat="44.10272" lon="6.29903">
        <ele>926.708</ele>
        <time>2021-05-12T00:35:16Z</time>
      </trkpt>
      <trkpt lat="44.10321" lon="6.29955">
        <ele>922.739</ele>
        <time>2021-05-12T00:35:56Z</time>
      </trkpt>
      <trkpt lat="44.10332" lon="6.2999">
        <ele>919.824</ele>
        <time>2021-05-12T00:36:36Z</time>
      </trkpt>
      <trkpt lat="44.10335" lon="6.29997">
        <ele>920.139</ele>
        <time>2021-05-12T00:37:16Z</time>
      </trkpt>
      <trkpt lat="44.10355" lon="6.30032">
        <ele>922.94</ele>
        <time>2021-05-12T00:37:56Z</time>
      </trkpt>
      <trkpt lat="44.10374" lon="6.30049">
        <ele>926.62</ele>
        <time>2021-05-12T00:38:36Z</time>
      </trkpt>
      <trkpt lat="44.10377" lon="6.30055">
        <ele>926.665</ele>
        <time>2021-05-12T00:39:16Z</time>
      </trkpt>
      <trkpt lat="44.10402" lon="6.30098">
        <ele>921.428</ele>
        <time>2021-05-12T00:39:56Z</time>
      </trkpt>
      <trkpt lat="44.10577" lon="6.30128">
        <ele>941.63</ele>
        <time>2021-05-12T00:40:36Z</time>
      </trkpt>
      <trkpt lat="44.10603" lon="6.30191">
        <ele>942.633</ele>
        <time>2021-05-12T00:41:16Z</time>
      </trkpt>
      <trkpt lat="44.10646" lon="6.30174">
        <ele>949.823</ele>
        <time>2021-05-12T00:41:56Z</time>
      </trkpt>
      <trkpt lat="44.10731" lon="6.30346">
        <ele>932.615</ele>
        <time>2021-05-12T00:42:36Z</time>
      </trkpt>
      <trkpt lat="44.10759" lon="6.3053">
        <ele>930.408</ele>
        <time>2021-05-12T00:43:16Z</time>
      </trkpt>
      <trkpt lat="44.10782" lon="6.3069">
        <ele>941.94</ele>
        <time>2021-05-12T00:43:56Z</time>
      </trkpt>
      <trkpt lat="44.10857" lon="6.30748">
        <ele>947.075</ele>
        <time>2021-05-12T00:44:36Z</time>
      </trkpt>
      <trkpt lat="44.10868" lon="6.30766">
        <ele>949.43</ele>
        <time>2021-05-12T00:45:16Z</time>
      </trkpt>
      <trkpt lat="44.10944" lon="6.30872">
        <ele>948.651</ele>
        <time>2021-05-12T00:45:56Z</time>
      </trkpt>
      <trkpt lat="44.11036" lon="6.30953">
        <ele>932.941</ele>
        <time>2021-05-12T00:46:36Z</time>
      </trkpt>
      <trkpt lat="44.11138" lon="6.30979">
        <ele>946.546</ele>
        <time>2021-05-12T00:47:16Z</time>
      </trkpt>
      <trkpt lat="44.11227" lon="6.31093">
        <ele>928.929</ele>
        <time>2021-05-12T00:47:56Z</time>
      </trkpt>
      <trkpt lat="44.11303" lon="6.31173">
        <ele>943.171</ele>
        <time>2021-05-12T00:48:36Z</time>
      </trkpt>
      <trkpt lat="44.11304" lon="6.31279">
        <ele>950.367</ele>
        <time>2021-05-12T00:49:16Z</time>
      </trkpt>
      <trkpt lat="44.11241" lon="6.31353">
        <ele>960.181</ele>
        <time>2021-05-12T00:49:56Z</time>
      </trkpt>
      <trkpt lat="44.11251" lon="6.31399">
        <ele>955.919</ele>
        <time>2021-05-12T00:50:36Z</time>
      </trkpt>
      <trkpt lat="44.11233" lon="6.31437">
        <ele>961.608</ele>
        <time>2021-05-12T00:51:16Z</time>
      </trkpt>
      <trkpt lat="44.11165" lon="6.3135">
        <ele>973.163</ele>
        <time>2021-05-12T00:51:56Z</time>
      </trkpt>
      <trkpt lat="44.11135" lon="6.31328">
        <ele>976.348</ele>
        <time>2021-05-12T00:52:36Z</time>
      </trkpt>
      <trkpt lat="44.11098" lon="6.31181">
        <ele>984.443</ele>
        <time>2021-05-12T00:53:16Z</time>
      </trkpt>
      <trkpt lat="44.10991" lon="6.3124">
        <ele>997.524</ele>
        <time>2021-05-12T00:53:56Z</time>
      </trkpt>
      <trkpt lat="44.1098" lon="6.31237">
        <ele>999.054</ele>
        <time>2021-05-12T00:54:36Z</time>
      </trkpt>
      <trkpt lat="44.10878" lon="6.31059">
        <ele>1014.499</ele>
        <time>2021-05-12T00:55:16Z</time>
      </trkpt>
      <trkpt lat="44.10861" lon="6.31032">
        <ele>1014.342</ele>
        <time>2021-05-12T00:55:56Z</time>
      </trkpt>
      <trkpt lat="44.10861" lon="6.31148">
        <ele>1023.984</ele>
        <time>2021-05-12T00:56:36Z</time>
      </trkpt>
      <trkpt lat="44.10886" lon="6.31252">
        <ele>1031.354</ele>
        <time>2021-05-12T00:57:16Z</time>
      </trkpt>
      <trkpt lat="44.10869" lon="6.31393">
        <ele>1041.656</ele>
        <time>2021-05-12T00:57:56Z</time>
      </trkpt>
      <trkpt lat="44.10867" lon="6.31493">
        <ele>1049.011</ele>
        <time>2021-05-12T00:58:36Z</time>
      </trkpt>
      <trkpt lat="44.10858" lon="6.31499">
        <ele>1051.408</ele>
        <time>2021-05-12T00:59:16Z</time>
      </trkpt>
      <trkpt lat="44.10917" lon="6.31761">
        <ele>1070.352</ele>
        <time>2021-05-12T00:59:56Z</time>
      </trkpt>
      <trkpt lat="44.10847" lon="6.32023">
        <ele>1094.977</ele>
        <time>2021-05-12T01:00:36Z</time>
      </trkpt>
      <trkpt lat="44.10852" lon="6.32096">
        <ele>1099.392</ele>
        <time>2021-05-12T01:01:16Z</time>
      </trkpt>
      <trkpt lat="44.10869" lon="6.32126">
        <ele>1104.253</ele>
        <time>2021-05-12T01:01:56Z</time>
      </trkpt>
      <trkpt lat="44.1083" lon="6.32127">
        <ele>1106.293</ele>
        <time>2021-05-12T01:02:36Z</time>
      </trkpt>
      <trkpt lat="44.10747" lon="6.32045">
        <ele>1115.198</ele>
        <time>2021-05-12T01:03:16Z</time>
      </trkpt>
      <trkpt lat="44.1072" lon="6.32064">
        <ele>1119.311</ele>
        <time>2021-05-12T01:03:56Z</time>
      </trkpt>
      <trkpt lat="44.1068" lon="6.32067">
        <ele>1124.283</ele>
        <time>2021-05-12T01:04:36Z</time>
      </trkpt>
      <trkpt lat="44.10619" lon="6.32131">
        <ele>1126.872</ele>
        <time>2021-05-12T01:05:16Z</time>
      </trkpt>
      <trkpt lat="44.10637" lon="6.3215">
        <ele>1132.713</ele>
        <time>2021-05-12T01:05:56Z</time>
      </trkpt>
      <trkpt lat="44.10674" lon="6.3225">
        <ele>1142.714</ele>
        <time>2021-05-12T01:06:36Z</time>
      </trkpt>
      <trkpt lat="44.10713" lon="6.3228">
        <ele>1144.608</ele>
        <time>2021-05-12T01:07:16Z</time>
      </trkpt>
      <trkpt lat="44.1074" lon="6.32381">
        <ele>1152.984</ele>
        <time>2021-05-12T01:07:56Z</time>
      </trkpt>
      <trkpt lat="44.10741" lon="6.32466">
        <ele>1160.379</ele>
        <time>2021-05-12T01:08:36Z</time>
      </trkpt>
      <trkpt lat="44.10768" lon="6.32517">
        <ele>1165.064</ele>
        <time>2021-05-12T01:09:16Z</time>
      </trkpt>
      <trkpt lat="44.10791" lon="6.32534">
        <ele>1164.895</ele>
        <time>2021-05-12T01:09:56Z</time>
      </trkpt>
      <trkpt lat="44.10801" lon="6.3251">
        <ele>1161.195</ele>
        <time>2021-05-12T01:10:36Z</time>
      </trkpt>
      <trkpt lat="44.10847" lon="6.32459">
        <ele>1155.31</ele>
        <time>2021-05-12T01:11:16Z</time>
      </trkpt>
      <trkpt lat="44.10854" lon="6.32436">
        <ele>1151.753</ele>
        <time>2021-05-12T01:11:56Z</time>
      </trkpt>
      <trkpt lat="44.10945" lon="6.32394">
        <ele>1126.715</ele>
        <time>2021-05-12T01:12:36Z</time>
      </trkpt>
      <trkpt lat="44.10981" lon="6.324">
        <ele>1119.897</ele>
        <time>2021-05-12T01:13:16Z</time>
      </trkpt>
      <trkpt lat="44.10992" lon="6.32366">
        <ele>1116.023</ele>
        <time>2021-05-12T01:13:56Z</time>
      </trkpt>
      <trkpt lat="44.11002" lon="6.32328">
        <ele>1106.925</ele>
        <time>2021-05-12T01:14:36Z</time>
      </trkpt>
      <trkpt lat="44.111" lon="6.32317">
        <ele>1082.108</ele>
        <time>2021-05-12T01:15:16Z</time>
      </trkpt>
      <trkpt lat="44.11123" lon="6.32305">
        <ele>1079.116</ele>
        <time>2021-05-12T01:15:56Z</time>
      </trkpt>
      <trkpt lat="44.11144" lon="6.32323">
        <ele>1075.751</ele>
        <time>2021-05-12T01:16:36Z</time>
      </trkpt>
      <trkpt lat="44.11163" lon="6.32368">
        <ele>1069.796</ele>
        <time>2021-05-12T01:17:16Z</time>
      </trkpt>
      <trkpt lat="44.11209" lon="6.32377">
        <ele>1072.567</ele>
        <time>2021-05-12T01:17:56Z</time>
      </trkpt>
      <trkpt lat="44.11251" lon="6.32362">
        <ele>1074.367</ele>
        <time>2021-05-12T01:18:36Z</time>
      </trkpt>
      <trkpt lat="44.1128" lon="6.32355">
        <ele>1077.322</ele>
        <time>2021-05-12T01:19:16Z</time>
      </trkpt>
      <trkpt lat="44.1133" lon="6.32328">
        <ele>1078.635</ele>
        <time>2021-05-12T01:19:56Z</time>
      </trkpt>
      <trkpt lat="44.11347" lon="6.32306">
        <ele>1078.917</ele>
        <time>2021-05-12T01:20:36Z</time>
      </trkpt>
      <trkpt lat="44.11382" lon="6.32303">
        <ele>1080.049</ele>
        <time>2021-05-12T01:21:16Z</time>
      </trkpt>
      <trkpt lat="44.11397" lon="6.32303">
        <ele>1078.202</ele>
        <time>2021-05-12T01:21:56Z</time>
      </trkpt>
      <trkpt lat="44.11388" lon="6.3236">
        <ele>1070.222</ele>
        <time>2021-05-12T01:22:36Z</time>
      </trkpt>
      <trkpt lat="44.11406" lon="6.32391">
        <ele>1061.008</ele>
        <time>2021-05-12T01:23:16Z</time>
      </trkpt>
      <trkpt lat="44.11471" lon="6.32439">
        <ele>1051.541</ele>
        <time>2021-05-12T01:23:56Z</time>
      </trkpt>
      <trkpt lat="44.11482" lon="6.32451">
        <ele>1047.466</ele>
        <time>2021-05-12T01:24:36Z</time>
      </trkpt>
      <trkpt lat="44.11503" lon="6.32453">
        <ele>1042.941</ele>
        <time>2021-05-12T01:25:16Z</time>
      </trkpt>
      <trkpt lat="44.11512" lon="6.32465">
        <ele>1037.892</ele>
        <time>2021-05-12T01:25:56Z</time>
      </trkpt>
      <trkpt lat="44.11564" lon="6.32433">
        <ele>1025.782</ele>
        <time>2021-05-12T01:26:36Z</time>
      </trkpt>
      <trkpt lat="44.11589" lon="6.32396">
        <ele>1021.137</ele>
        <time>2021-05-12T01:27:16Z</time>
      </trkpt>
      <trkpt lat="44.11597" lon="6.3241">
        <ele>1021.11</ele>
        <time>2021-05-12T01:27:56Z</time>
      </trkpt>
      <trkpt lat="44.11652" lon="6.32429">
        <ele>1015.852</ele>
        <time>2021-05-12T01:28:36Z</time>
      </trkpt>
      <trkpt lat="44.11663" lon="6.32364">
        <ele>1013.561</ele>
        <time>2021-05-12T01:29:16Z</time>
      </trkpt>
      <trkpt lat="44.11737" lon="6.32327">
        <ele>1009.121</ele>
        <time>2021-05-12T01:29:56Z</time>
      </trkpt>
      <trkpt lat="44.11785" lon="6.32313">
        <ele>1000.613</ele>
        <time>2021-05-12T01:30:36Z</time>
      </trkpt>
      <trkpt lat="44.11757" lon="6.32305">
        <ele>1005.508</ele>
        <time>2021-05-12T01:31:16Z</time>
      </trkpt>
      <trkpt lat="44.11769" lon="6.3229">
        <ele>1002.073</ele>
        <time>2021-05-12T01:31:56Z</time>
      </trkpt>
      <trkpt lat="44.11819" lon="6.32284">
        <ele>998.738</ele>
        <time>2021-05-12T01:32:36Z</time>
      </trkpt>
      <trkpt lat="44.11847" lon="6.32237">
        <ele>997.743</ele>
        <time>2021-05-12T01:33:16Z</time>
      </trkpt>
      <trkpt lat="44.11888" lon="6.32199">
        <ele>999.524</ele>
        <time>2021-05-12T01:33:56Z</time>
      </trkpt>
      <trkpt lat="44.11877" lon="6.3217">
        <ele>999.814</ele>
        <time>2021-05-12T01:34:36Z</time>
      </trkpt>
      <trkpt lat="44.11882" lon="6.3214">
        <ele>999.369</ele>
        <time>2021-05-12T01:35:16Z</time>
      </trkpt>
      <trkpt lat="44.11905" lon="6.3213">
        <ele>990.962</ele>
        <time>2021-05-12T01:35:56Z</time>
      </trkpt>
      <trkpt lat="44.11922" lon="6.32127">
        <ele>985.054</ele>
        <time>2021-05-12T01:36:36Z</time>
      </trkpt>
      <trkpt lat="44.11929" lon="6.32116">
        <ele>983.112</ele>
        <time>2021-05-12T01:37:16Z</time>
      </trkpt>
      <trkpt lat="44.1196" lon="6.32114">
        <ele>974.532</ele>
        <time>2021-05-12T01:37:56Z</time>
      </trkpt>
      <trkpt lat="44.11966" lon="6.32087">
        <ele>971.605</ele>
        <time>2021-05-12T01:38:36Z</time>
      </trkpt>
      <trkpt lat="44.11996" lon="6.32111">
        <ele>970.108</ele>
        <time>2021-05-12T01:39:16Z</time>
      </trkpt>
      <trkpt lat="44.12016" lon="6.32114">
        <ele>969.698</ele>
        <time>2021-05-12T01:39:56Z</time>
      </trkpt>
      <trkpt lat="44.12069" lon="6.32173">
        <ele>953.753</ele>
        <time>2021-05-12T01:40:36Z</time>
      </trkpt>
      <trkpt lat="44.12107" lon="6.32176">
        <ele>951.918</ele>
        <time>2021-05-12T01:41:16Z</time>
      </trkpt>
      <trkpt lat="44.1211" lon="6.3218">
        <ele>951.639</ele>
        <time>2021-05-12T01:41:56Z</time>
      </trkpt>
      <trkpt lat="44.12137" lon="6.3219">
        <ele>950.179</ele>
        <time>2021-05-12T01:42:36Z</time>
      </trkpt>
      <trkpt lat="44.12147" lon="6.32198">
        <ele>949.924</ele>
        <time>2021-05-12T01:43:16Z</time>
      </trkpt>
      <trkpt lat="44.12161" lon="6.32196">
        <ele>950.537</ele>
        <time>2021-05-12T01:43:56Z</time>
      </trkpt>
      <trkpt lat="44.12108" lon="6.32039">
        <ele>943.949</ele>
        <time>2021-05-12T01:44:36Z</time>
      </trkpt>
      <trkpt lat="44.12071" lon="6.31932">
        <ele>949.887</ele>
        <time>2021-05-12T01:45:16Z</time>
      </trkpt>
      <trkpt lat="44.12023" lon="6.3191">
        <ele>944.342</ele>
        <time>2021-05-12T01:45:56Z</time>
      </trkpt>
      <trkpt lat="44.11998" lon="6.31871">
        <ele>944.826</ele>
        <time>2021-05-12T01:46:36Z</time>
      </trkpt>
      <trkpt lat="44.11979" lon="6.31858">
        <ele>948.208</ele>
        <time>2021-05-12T01:47:16Z</time>
      </trkpt>
      <trkpt lat="44.11966" lon="6.31773">
        <ele>951.265</ele>
        <time>2021-05-12T01:47:56Z</time>
      </trkpt>
      <trkpt lat="44.11924" lon="6.31741">
        <ele>940.72</ele>
        <time>2021-05-12T01:48:36Z</time>
      </trkpt>
      <trkpt lat="44.11918" lon="6.31737">
        <ele>938.965</ele>
        <time>2021-05-12T01:49:16Z</time>
      </trkpt>
      <trkpt lat="44.11889" lon="6.31732">
        <ele>940.066</ele>
        <time>2021-05-12T01:49:56Z</time>
      </trkpt>
      <trkpt lat="44.11891" lon="6.31698">
        <ele>939.376</ele>
        <time>2021-05-12T01:50:36Z</time>
      </trkpt>
      <trkpt lat="44.11888" lon="6.31676">
        <ele>943.051</ele>
        <time>2021-05-12T01:51:16Z</time>
      </trkpt>
      <trkpt lat="44.11863" lon="6.31643">
        <ele>955.824</ele>
        <time>2021-05-12T01:51:56Z</time>
      </trkpt>
      <trkpt lat="44.1187" lon="6.31598">
        <ele>956.176</ele>
        <time>2021-05-12T01:52:36Z</time>
      </trkpt>
      <trkpt lat="44.11859" lon="6.31577">
        <ele>959.136</ele>
        <time>2021-05-12T01:53:16Z</time>
      </trkpt>
      <trkpt lat="44.11809" lon="6.31559">
        <ele>957.017</ele>
        <time>2021-05-12T01:53:56Z</time>
      </trkpt>
      <trkpt lat="44.1181" lon="6.31554">
        <ele>956.318</ele>
        <time>2021-05-12T01:54:36Z</time>
      </trkpt>
      <trkpt lat="44.11808" lon="6.31475">
        <ele>952.008</ele>
        <time>2021-05-12T01:55:16Z</time>
      </trkpt>
      <trkpt lat="44.11783" lon="6.31457">
        <ele>951.68</ele>
        <time>2021-05-12T01:55:56Z</time>
      </trkpt>
      <trkpt lat="44.11751" lon="6.31411">
        <ele>954.375</ele>
        <time>2021-05-12T01:56:36Z</time>
      </trkpt>
      <trkpt lat="44.11719" lon="6.31375">
        <ele>954.58</ele>
        <time>2021-05-12T01:57:16Z</time>
      </trkpt>
      <trkpt lat="44.11731" lon="6.31362">
        <ele>952.881</ele>
        <time>2021-05-12T01:57:56Z</time>
      </trkpt>
      <trkpt lat="44.11758" lon="6.31346">
        <ele>951.111</ele>
        <time>2021-05-12T01:58:36Z</time>
      </trkpt>
      <trkpt lat="44.11772" lon="6.31308">
        <ele>952.266</ele>
        <time>2021-05-12T01:59:16Z</time>
      </trkpt>
      <trkpt lat="44.11775" lon="6.3127">
        <ele>954.369</ele>
        <time>2021-05-12T01:59:56Z</time>
      </trkpt>
      <trkpt lat="44.11796" lon="6.31247">
        <ele>954.391</ele>
        <time>2021-05-12T02:00:36Z</time>
      </trkpt>
      <trkpt lat="44.11797" lon="6.3125">
        <ele>954.096</ele>
        <time>2021-05-12T02:01:16Z</time>
      </trkpt>
      <trkpt lat="44.11803" lon="6.31254">
        <ele>954.031</ele>
        <time>2021-05-12T02:01:56Z</time>
      </trkpt>
      <trkpt lat="44.11825" lon="6.31251">
        <ele>954.624</ele>
        <time>2021-05-12T02:02:36Z</time>
      </trkpt>
      <trkpt lat="44.11806" lon="6.31186">
        <ele>960.608</ele>
        <time>2021-05-12T02:03:16Z</time>
      </trkpt>
      <trkpt lat="44.11812" lon="6.31166">
        <ele>964.096</ele>
        <time>2021-05-12T02:03:56Z</time>
      </trkpt>
      <trkpt lat="44.11771" lon="6.31125">
        <ele>970.261</ele>
        <time>2021-05-12T02:04:36Z</time>
      </trkpt>
      <trkpt lat="44.11742" lon="6.31026">
        <ele>979.296</ele>
        <time>2021-05-12T02:05:16Z</time>
      </trkpt>
      <trkpt lat="44.11755" lon="6.30968">
        <ele>988.357</ele>
        <time>2021-05-12T02:05:56Z</time>
      </trkpt>
      <trkpt lat="44.11724" lon="6.30869">
        <ele>994.477</ele>
        <time>2021-05-12T02:06:36Z</time>
      </trkpt>
      <trkpt lat="44.11724" lon="6.30864">
        <ele>995.212</ele>
        <time>2021-05-12T02:07:16Z</time>
      </trkpt>
      <trkpt lat="44.11761" lon="6.30818">
        <ele>1001.535</ele>
        <time>2021-05-12T02:07:56Z</time>
      </trkpt>
      <trkpt lat="44.11802" lon="6.30794">
        <ele>1013.037</ele>
        <time>2021-05-12T02:08:36Z</time>
      </trkpt>
      <trkpt lat="44.11789" lon="6.30721">
        <ele>1014.918</ele>
        <time>2021-05-12T02:09:16Z</time>
      </trkpt>
      <trkpt lat="44.11791" lon="6.30647">
        <ele>1027.098</ele>
        <time>2021-05-12T02:09:56Z</time>
      </trkpt>
      <trkpt lat="44.11728" lon="6.3065">
        <ele>1024.817</ele>
        <time>2021-05-12T02:10:36Z</time>
      </trkpt>
      <trkpt lat="44.11714" lon="6.30587">
        <ele>1025.108</ele>
        <time>2021-05-12T02:11:16Z</time>
      </trkpt>
      <trkpt lat="44.11714" lon="6.30584">
        <ele>1025.048</ele>
        <time>2021-05-12T02:11:56Z</time>
      </trkpt>
      <trkpt lat="44.1171" lon="6.30485">
        <ele>1041.813</ele>
        <time>2021-05-12T02:12:36Z</time>
      </trkpt>
      <trkpt lat="44.11703" lon="6.30481">
        <ele>1042.588</ele>
        <time>2021-05-12T02:13:16Z</time>
      </trkpt>
      <trkpt lat="44.11658" lon="6.30473">
        <ele>1041.099</ele>
        <time>2021-05-12T02:13:56Z</time>
      </trkpt>
      <trkpt lat="44.11712" lon="6.30431">
        <ele>1055.169</ele>
        <time>2021-05-12T02:14:36Z</time>
      </trkpt>
      <trkpt lat="44.11715" lon="6.30428">
        <ele>1056.324</ele>
        <time>2021-05-12T02:15:16Z</time>
      </trkpt>
      <trkpt lat="44.11748" lon="6.30383">
        <ele>1069.317</ele>
        <time>2021-05-12T02:15:56Z</time>
      </trkpt>
      <trkpt lat="44.1175" lon="6.30381">
        <ele>1069.849</ele>
        <time>2021-05-12T02:16:36Z</time>
      </trkpt>
      <trkpt lat="44.11755" lon="6.30376">
        <ele>1071.188</ele>
        <time>2021-05-12T02:17:16Z</time>
      </trkpt>
      <trkpt lat="44.11778" lon="6.30374">
        <ele>1074.624</ele>
        <time>2021-05-12T02:17:56Z</time>
      </trkpt>
      <trkpt lat="44.11781" lon="6.30379">
        <ele>1074.726</ele>
        <time>2021-05-12T02:18:36Z</time>
      </trkpt>
      <trkpt lat="44.11788" lon="6.3039">
        <ele>1075.108</ele>
        <time>2021-05-12T02:19:16Z</time>
      </trkpt>
      <trkpt lat="44.11833" lon="6.30412">
        <ele>1079.945</ele>
        <time>2021-05-12T02:19:56Z</time>
      </trkpt>
      <trkpt lat="44.11909" lon="6.30456">
        <ele>1082.24</ele>
        <time>2021-05-12T02:20:36Z</time>
      </trkpt>
      <trkpt lat="44.11958" lon="6.30463">
        <ele>1088.125</ele>
        <time>2021-05-12T02:21:16Z</time>
      </trkpt>
      <trkpt lat="44.12" lon="6.30426">
        <ele>1090.056</ele>
        <time>2021-05-12T02:21:56Z</time>
      </trkpt>
      <trkpt lat="44.11997" lon="6.304">
        <ele>1088.856</ele>
        <time>2021-05-12T02:22:36Z</time>
      </trkpt>
      <trkpt lat="44.1199" lon="6.30356">
        <ele>1081.821</ele>
        <time>2021-05-12T02:23:16Z</time>
      </trkpt>
      <trkpt lat="44.12004" lon="6.30287">
        <ele>1076.654</ele>
        <time>2021-05-12T02:23:56Z</time>
      </trkpt>
      <trkpt lat="44.11991" lon="6.3019">
        <ele>1074.616</ele>
        <time>2021-05-12T02:24:36Z</time>
      </trkpt>
      <trkpt lat="44.11989" lon="6.30187">
        <ele>1074.561</ele>
        <time>2021-05-12T02:25:16Z</time>
      </trkpt>
      <trkpt lat="44.11978" lon="6.30158">
        <ele>1074.021</ele>
        <time>2021-05-12T02:25:56Z</time>
      </trkpt>
      <trkpt lat="44.11978" lon="6.30111">
        <ele>1076.313</ele>
        <time>2021-05-12T02:26:36Z</time>
      </trkpt>
      <trkpt lat="44.11933" lon="6.2999">
        <ele>1075.708</ele>
        <time>2021-05-12T02:27:16Z</time>
      </trkpt>
      <trkpt lat="44.11985" lon="6.29857">
        <ele>1060.793</ele>
        <time>2021-05-12T02:27:56Z</time>
      </trkpt>
      <trkpt lat="44.1198" lon="6.29784">
        <ele>1054.598</ele>
        <time>2021-05-12T02:28:36Z</time>
      </trkpt>
      <trkpt lat="44.11978" lon="6.2978">
        <ele>1053.923</ele>
        <time>2021-05-12T02:29:16Z</time>
      </trkpt>
      <trkpt lat="44.11963" lon="6.29674">
        <ele>1048.534</ele>
        <time>2021-05-12T02:29:56Z</time>
      </trkpt>
      <trkpt lat="44.11963" lon="6.29597">
        <ele>1038.114</ele>
        <time>2021-05-12T02:30:36Z</time>
      </trkpt>
      <trkpt lat="44.11941" lon="6.29547">
        <ele>1030.339</ele>
        <time>2021-05-12T02:31:16Z</time>
      </trkpt>
      <trkpt lat="44.11923" lon="6.29498">
        <ele>1018.722</ele>
        <time>2021-05-12T02:31:56Z</time>
      </trkpt>
      <trkpt lat="44.11916" lon="6.29441">
        <ele>1008.094</ele>
        <time>2021-05-12T02:32:36Z</time>
      </trkpt>
      <trkpt lat="44.11904" lon="6.29437">
        <ele>1000.595</ele>
        <time>2021-05-12T02:33:16Z</time>
      </trkpt>
      <trkpt lat="44.11911" lon="6.29412">
        <ele>994.849</ele>
        <time>2021-05-12T02:33:56Z</time>
      </trkpt>
      <trkpt lat="44.11924" lon="6.29415">
        <ele>996.323</ele>
        <time>2021-05-12T02:34:36Z</time>
      </trkpt>
      <trkpt lat="44.11924" lon="6.29413">
        <ele>995.408</ele>
        <time>2021-05-12T02:35:16Z</time>
      </trkpt>
      <trkpt lat="44.11923" lon="6.29408">
        <ele>993.556</ele>
        <time>2021-05-12T02:35:56Z</time>
      </trkpt>
      <trkpt lat="44.11923" lon="6.29404">
        <ele>991.491</ele>
        <time>2021-05-12T02:36:36Z</time>
      </trkpt>
      <trkpt lat="44.11931" lon="6.29398">
        <ele>986.616</ele>
        <time>2021-05-12T02:37:16Z</time>
      </trkpt>
      <trkpt lat="44.11919" lon="6.29385">
        <ele>983.467</ele>
        <time>2021-05-12T02:37:56Z</time>
      </trkpt>
      <trkpt lat="44.11923" lon="6.2937">
        <ele>974.457</ele>
        <time>2021-05-12T02:38:36Z</time>
      </trkpt>
      <trkpt lat="44.11924" lon="6.29372">
        <ele>975.412</ele>
        <time>2021-05-12T02:39:16Z</time>
      </trkpt>
      <trkpt lat="44.11944" lon="6.29372">
        <ele>972.315</ele>
        <time>2021-05-12T02:39:56Z</time>
      </trkpt>
      <trkpt lat="44.11941" lon="6.29352">
        <ele>962.037</ele>
        <time>2021-05-12T02:40:36Z</time>
      </trkpt>
      <trkpt lat="44.11953" lon="6.29323">
        <ele>945.447</ele>
        <time>2021-05-12T02:41:16Z</time>
      </trkpt>
      <trkpt lat="44.11936" lon="6.29291">
        <ele>935.929</ele>
        <time>2021-05-12T02:41:56Z</time>
      </trkpt>
      <trkpt lat="44.11914" lon="6.29287">
        <ele>933.021</ele>
        <time>2021-05-12T02:42:36Z</time>
      </trkpt>
      <trkpt lat="44.11863" lon="6.29246">
        <ele>911.208</ele>
        <time>2021-05-12T02:43:16Z</time>
      </trkpt>
      <trkpt lat="44.1181" lon="6.29211">
        <ele>898.641</ele>
        <time>2021-05-12T02:43:56Z</time>
      </trkpt>
      <trkpt lat="44.11717" lon="6.29081">
        <ele>867.786</ele>
        <time>2021-05-12T02:44:36Z</time>
      </trkpt>
      <trkpt lat="44.11715" lon="6.29078">
        <ele>867.141</ele>
        <time>2021-05-12T02:45:16Z</time>
      </trkpt>
      <trkpt lat="44.11712" lon="6.29075">
        <ele>866.342</ele>
        <time>2021-05-12T02:45:56Z</time>
      </trkpt>
      <trkpt lat="44.11674" lon="6.29057">
        <ele>860.182</ele>
        <time>2021-05-12T02:46:36Z</time>
      </trkpt>
      <trkpt lat="44.11665" lon="6.29035">
        <ele>858.687</ele>
        <time>2021-05-12T02:47:16Z</time>
      </trkpt>
      <trkpt lat="44.11638" lon="6.2897">
        <ele>851.85</ele>
        <time>2021-05-12T02:47:56Z</time>
      </trkpt>
      <trkpt lat="44.11585" lon="6.28817">
        <ele>855.232</ele>
        <time>2021-05-12T02:48:36Z</time>
      </trkpt>
      <trkpt lat="44.1159" lon="6.28779">
        <ele>854.997</ele>
        <time>2021-05-12T02:49:16Z</time>
      </trkpt>
      <trkpt lat="44.11566" lon="6.28656">
        <ele>860.023</ele>
        <time>2021-05-12T02:49:56Z</time>
      </trkpt>
      <trkpt lat="44.11564" lon="6.28652">
        <ele>860.025</ele>
        <time>2021-05-12T02:50:36Z</time>
      </trkpt>
      <trkpt lat="44.11496" lon="6.28589">
        <ele>856.008</ele>
        <time>2021-05-12T02:51:16Z</time>
      </trkpt>
      <trkpt lat="44.11493" lon="6.28583">
        <ele>855.256</ele>
        <time>2021-05-12T02:51:56Z</time>
      </trkpt>
      <trkpt lat="44.11426" lon="6.28497">
        <ele>839.841</ele>
        <time>2021-05-12T02:52:36Z</time>
      </trkpt>
      <trkpt lat="44.11385" lon="6.28488">
        <ele>840.076</ele>
        <time>2021-05-12T02:53:16Z</time>
      </trkpt>
      <trkpt lat="44.11344" lon="6.2843">
        <ele>839.887</ele>
        <time>2021-05-12T02:53:56Z</time>
      </trkpt>
      <trkpt lat="44.11341" lon="6.28428">
        <ele>839.827</ele>
        <time>2021-05-12T02:54:36Z</time>
      </trkpt>
      <trkpt lat="44.11315" lon="6.28421">
        <ele>839.962</ele>
        <time>2021-05-12T02:55:16Z</time>
      </trkpt>
      <trkpt lat="44.1128" lon="6.28428">
        <ele>835.945</ele>
        <time>2021-05-12T02:55:56Z</time>
      </trkpt>
      <trkpt lat="44.11243" lon="6.28411">
        <ele>829.347</ele>
        <time>2021-05-12T02:56:36Z</time>
      </trkpt>
      <trkpt lat="44.11228" lon="6.28379">
        <ele>824.794</ele>
        <time>2021-05-12T02:57:16Z</time>
      </trkpt>
      <trkpt lat="44.11174" lon="6.28371">
        <ele>820.457</ele>
        <time>2021-05-12T02:57:56Z</time>
      </trkpt>
      <trkpt lat="44.11128" lon="6.28331">
        <ele>821.922</ele>
        <time>2021-05-12T02:58:36Z</time>
      </trkpt>
      <trkpt lat="44.11124" lon="6.28342">
        <ele>822.408</ele>
        <time>2021-05-12T02:59:16Z</time>
      </trkpt>
      <trkpt lat="44.11104" lon="6.28341">
        <ele>825.966</ele>
        <time>2021-05-12T02:59:56Z</time>
      </trkpt>
      <trkpt lat="44.11076" lon="6.28359">
        <ele>829.551</ele>
        <time>2021-05-12T03:00:36Z</time>
      </trkpt>
      <trkpt lat="44.11069" lon="6.28337">
        <ele>832.296</ele>
        <time>2021-05-12T03:01:16Z</time>
      </trkpt>
      <trkpt lat="44.11049" lon="6.28325">
        <ele>833.857</ele>
        <time>2021-05-12T03:01:56Z</time>
      </trkpt>
      <trkpt lat="44.11026" lon="6.28298">
        <ele>835.517</ele>
        <time>2021-05-12T03:02:36Z</time>
      </trkpt>
      <trkpt lat="44.11021" lon="6.28276">
        <ele>837.252</ele>
        <time>2021-05-12T03:03:16Z</time>
      </trkpt>
      <trkpt lat="44.10992" lon="6.28246">
        <ele>830.655</ele>
        <time>2021-05-12T03:03:56Z</time>
      </trkpt>
      <trkpt lat="44.10949" lon="6.28234">
        <ele>817.687</ele>
        <time>2021-05-12T03:04:36Z</time>
      </trkpt>
      <trkpt lat="44.10931" lon="6.28236">
        <ele>812.824</ele>
        <time>2021-05-12T03:05:16Z</time>
      </trkpt>
      <trkpt lat="44.10928" lon="6.28247">
        <ele>812.104</ele>
        <time>2021-05-12T03:05:56Z</time>
      </trkpt>
      <trkpt lat="44.10846" lon="6.28205">
        <ele>791.014</ele>
        <time>2021-05-12T03:06:36Z</time>
      </trkpt>
      <trkpt lat="44.10802" lon="6.28145">
        <ele>776.008</ele>
        <time>2021-05-12T03:07:16Z</time>
      </trkpt>
      <trkpt lat="44.10753" lon="6.28106">
        <ele>768.779</ele>
        <time>2021-05-12T03:07:56Z</time>
      </trkpt>
      <trkpt lat="44.10707" lon="6.28065">
        <ele>768.964</ele>
        <time>2021-05-12T03:08:36Z</time>
      </trkpt>
      <trkpt lat="44.10705" lon="6.28042">
        <ele>766.919</ele>
        <time>2021-05-12T03:09:16Z</time>
      </trkpt>
      <trkpt lat="44.10661" lon="6.28012">
        <ele>760.99</ele>
        <time>2021-05-12T03:09:56Z</time>
      </trkpt>
      <trkpt lat="44.10632" lon="6.28023">
        <ele>756.72</ele>
        <time>2021-05-12T03:10:36Z</time>
      </trkpt>
      <trkpt lat="44.10558" lon="6.27993">
        <ele>747.365</ele>
        <time>2021-05-12T03:11:16Z</time>
      </trkpt>
      <trkpt lat="44.10542" lon="6.27959">
        <ele>740.088</ele>
        <time>2021-05-12T03:11:56Z</time>
      </trkpt>
      <trkpt lat="44.10412" lon="6.2792">
        <ele>733.75</ele>
        <time>2021-05-12T03:12:36Z</time>
      </trkpt>
      <trkpt lat="44.10336" lon="6.27951">
        <ele>723.032</ele>
        <time>2021-05-12T03:13:16Z</time>
      </trkpt>
      <trkpt lat="44.10289" lon="6.27952">
        <ele>711.592</ele>
        <time>2021-05-12T03:13:56Z</time>
      </trkpt>
      <trkpt lat="44.10224" lon="6.27899">
        <ele>690.711</ele>
        <time>2021-05-12T03:14:36Z</time>
      </trkpt>
      <trkpt lat="44.10142" lon="6.2789">
        <ele>681.608</ele>
        <time>2021-05-12T03:15:16Z</time>
      </trkpt>
      <trkpt lat="44.10101" lon="6.27839">
        <ele>683.33</ele>
        <time>2021-05-12T03:15:56Z</time>
      </trkpt>
      <trkpt lat="44.10096" lon="6.27808">
        <ele>680.925</ele>
        <time>2021-05-12T03:16:36Z</time>
      </trkpt>
      <trkpt lat="44.09991" lon="6.27751">
        <ele>679.37</ele>
        <time>2021-05-12T03:17:16Z</time>
      </trkpt>
      <trkpt lat="44.09968" lon="6.27666">
        <ele>673.621</ele>
        <time>2021-05-12T03:17:56Z</time>
      </trkpt>
      <trkpt lat="44.09839" lon="6.27605">
        <ele>670.011</ele>
        <time>2021-05-12T03:18:36Z</time>
      </trkpt>
      <trkpt lat="44.09827" lon="6.27619">
        <ele>672.496</ele>
        <time>2021-05-12T03:19:16Z</time>
      </trkpt>
      <trkpt lat="44.09715" lon="6.27504">
        <ele>662.459</ele>
        <time>2021-05-12T03:19:56Z</time>
      </trkpt>
      <trkpt lat="44.09676" lon="6.27482">
        <ele>662.211</ele>
        <time>2021-05-12T03:20:36Z</time>
      </trkpt>
      <trkpt lat="44.09636" lon="6.27492">
        <ele>661.583</ele>
        <time>2021-05-12T03:21:16Z</time>
      </trkpt>
      <trkpt lat="44.09507" lon="6.27437">
        <ele>660.025</ele>
        <time>2021-05-12T03:21:56Z</time>
      </trkpt>
      <trkpt lat="44.09455" lon="6.27415">
        <ele>660.017</ele>
        <time>2021-05-12T03:22:36Z</time>
      </trkpt>
      <trkpt lat="44.09443" lon="6.27345">
        <ele>660.308</ele>
        <time>2021-05-12T03:23:16Z</time>
      </trkpt>
      <trkpt lat="44.09286" lon="6.27289">
        <ele>650.115</ele>
        <time>2021-05-12T03:23:56Z</time>
      </trkpt>
      <trkpt lat="44.09282" lon="6.2729">
        <ele>650.17</ele>
        <time>2021-05-12T03:24:36Z</time>
      </trkpt>
      <trkpt lat="44.09161" lon="6.27317">
        <ele>650.095</ele>
        <time>2021-05-12T03:25:16Z</time>
      </trkpt>
      <trkpt lat="44.09104" lon="6.2725">
        <ele>648.766</ele>
        <time>2021-05-12T03:25:56Z</time>
      </trkpt>
      <trkpt lat="44.09055" lon="6.27172">
        <ele>644.286</ele>
        <time>2021-05-12T03:26:36Z</time>
      </trkpt>
      <trkpt lat="44.09046" lon="6.27149">
        <ele>643.031</ele>
        <time>2021-05-12T03:27:16Z</time>
      </trkpt>
    </trkseg>
  </trk>
</gpx>